<?xml version="1.0" encoding="UTF-8" standalone="no" ?>
<gpx xmlns="http://www.topografix.com/GPX/1/1" xmlns:xsi="http://www.w3.org/2001/XMLSchema-instance" xsi:schemaLocation="http://www.topografix.com/GPX/1/1 http://www.topografix.com/GPX/1/1/gpx.xsd" version="1.1" creator="VisuGPX - https://www.visugpx.com">
  <metadata>
    <name>Lac de Montarouye</name>
    <desc><![CDATA[En boucle via le Courtaou des Esclozes]]></desc>
  </metadata>
  <trk>
    <name><![CDATA[2018-10-20 18:28:51]]></name>
    <trkseg>
      <trkpt lat="42.94626" lon="0.25585">
        <ele>1178.2</ele>
        <time>2018-10-20T08:43:39Z</time>
      </trkpt>
      <trkpt lat="42.94624" lon="0.25586">
        <ele>1178.2</ele>
        <time>2018-10-20T08:43:41Z</time>
      </trkpt>
      <trkpt lat="42.94618" lon="0.2559">
        <ele>1177.59</ele>
        <time>2018-10-20T08:43:47Z</time>
      </trkpt>
      <trkpt lat="42.94602" lon="0.25592">
        <ele>1176.3</ele>
        <time>2018-10-20T08:44:04Z</time>
      </trkpt>
      <trkpt lat="42.94587" lon="0.25597">
        <ele>1175.38</ele>
        <time>2018-10-20T08:44:22Z</time>
      </trkpt>
      <trkpt lat="42.94573" lon="0.25589">
        <ele>1176.86</ele>
        <time>2018-10-20T08:44:42Z</time>
      </trkpt>
      <trkpt lat="42.94565" lon="0.25602">
        <ele>1178.22</ele>
        <time>2018-10-20T08:45:04Z</time>
      </trkpt>
      <trkpt lat="42.94565" lon="0.25615">
        <ele>1178.38</ele>
        <time>2018-10-20T08:45:17Z</time>
      </trkpt>
      <trkpt lat="42.94574" lon="0.25639">
        <ele>1179.23</ele>
        <time>2018-10-20T08:45:36Z</time>
      </trkpt>
      <trkpt lat="42.94575" lon="0.25648">
        <ele>1179.73</ele>
        <time>2018-10-20T08:45:43Z</time>
      </trkpt>
      <trkpt lat="42.9458" lon="0.25668">
        <ele>1181.29</ele>
        <time>2018-10-20T08:46:01Z</time>
      </trkpt>
      <trkpt lat="42.9458" lon="0.25683">
        <ele>1182.39</ele>
        <time>2018-10-20T08:46:14Z</time>
      </trkpt>
      <trkpt lat="42.94578" lon="0.25694">
        <ele>1182.95</ele>
        <time>2018-10-20T08:46:22Z</time>
      </trkpt>
      <trkpt lat="42.94578" lon="0.25714">
        <ele>1183.89</ele>
        <time>2018-10-20T08:46:36Z</time>
      </trkpt>
      <trkpt lat="42.94581" lon="0.25719">
        <ele>1184.9</ele>
        <time>2018-10-20T08:46:49Z</time>
      </trkpt>
      <trkpt lat="42.94582" lon="0.25723">
        <ele>1184.96</ele>
        <time>2018-10-20T08:46:52Z</time>
      </trkpt>
      <trkpt lat="42.94584" lon="0.25731">
        <ele>1185.13</ele>
        <time>2018-10-20T08:46:58Z</time>
      </trkpt>
      <trkpt lat="42.94591" lon="0.25749">
        <ele>1185.92</ele>
        <time>2018-10-20T08:47:13Z</time>
      </trkpt>
      <trkpt lat="42.94595" lon="0.25758">
        <ele>1186.38</ele>
        <time>2018-10-20T08:47:22Z</time>
      </trkpt>
      <trkpt lat="42.94602" lon="0.25776">
        <ele>1187.59</ele>
        <time>2018-10-20T08:47:38Z</time>
      </trkpt>
      <trkpt lat="42.94606" lon="0.25789">
        <ele>1189.13</ele>
        <time>2018-10-20T08:47:54Z</time>
      </trkpt>
      <trkpt lat="42.94609" lon="0.25803">
        <ele>1190.4</ele>
        <time>2018-10-20T08:48:11Z</time>
      </trkpt>
      <trkpt lat="42.94613" lon="0.25821">
        <ele>1192.38</ele>
        <time>2018-10-20T08:48:28Z</time>
      </trkpt>
      <trkpt lat="42.94609" lon="0.25835">
        <ele>1193.67</ele>
        <time>2018-10-20T08:48:43Z</time>
      </trkpt>
      <trkpt lat="42.94601" lon="0.25852">
        <ele>1194.46</ele>
        <time>2018-10-20T08:48:56Z</time>
      </trkpt>
      <trkpt lat="42.94595" lon="0.25862">
        <ele>1193.88</ele>
        <time>2018-10-20T08:49:13Z</time>
      </trkpt>
      <trkpt lat="42.94594" lon="0.25863">
        <ele>1193.89</ele>
        <time>2018-10-20T08:49:14Z</time>
      </trkpt>
      <trkpt lat="42.94586" lon="0.25879">
        <ele>1194.98</ele>
        <time>2018-10-20T08:49:29Z</time>
      </trkpt>
      <trkpt lat="42.94583" lon="0.25894">
        <ele>1195.25</ele>
        <time>2018-10-20T08:49:41Z</time>
      </trkpt>
      <trkpt lat="42.94583" lon="0.25897">
        <ele>1195.3</ele>
        <time>2018-10-20T08:49:43Z</time>
      </trkpt>
      <trkpt lat="42.94583" lon="0.25913">
        <ele>1195.86</ele>
        <time>2018-10-20T08:49:55Z</time>
      </trkpt>
      <trkpt lat="42.94581" lon="0.2593">
        <ele>1196.53</ele>
        <time>2018-10-20T08:50:09Z</time>
      </trkpt>
      <trkpt lat="42.94581" lon="0.25933">
        <ele>1196.67</ele>
        <time>2018-10-20T08:50:11Z</time>
      </trkpt>
      <trkpt lat="42.94583" lon="0.25947">
        <ele>1197.3</ele>
        <time>2018-10-20T08:50:23Z</time>
      </trkpt>
      <trkpt lat="42.94586" lon="0.25969">
        <ele>1199.09</ele>
        <time>2018-10-20T08:50:40Z</time>
      </trkpt>
      <trkpt lat="42.94586" lon="0.25983">
        <ele>1200.28</ele>
        <time>2018-10-20T08:50:54Z</time>
      </trkpt>
      <trkpt lat="42.94586" lon="0.25997">
        <ele>1201.91</ele>
        <time>2018-10-20T08:51:07Z</time>
      </trkpt>
      <trkpt lat="42.9458" lon="0.26016">
        <ele>1204.09</ele>
        <time>2018-10-20T08:51:24Z</time>
      </trkpt>
      <trkpt lat="42.94579" lon="0.26018">
        <ele>1204.36</ele>
        <time>2018-10-20T08:51:26Z</time>
      </trkpt>
      <trkpt lat="42.94574" lon="0.26038">
        <ele>1206.16</ele>
        <time>2018-10-20T08:51:44Z</time>
      </trkpt>
      <trkpt lat="42.94566" lon="0.26065">
        <ele>1206.67</ele>
        <time>2018-10-20T08:52:05Z</time>
      </trkpt>
      <trkpt lat="42.94561" lon="0.26084">
        <ele>1206.74</ele>
        <time>2018-10-20T08:52:20Z</time>
      </trkpt>
      <trkpt lat="42.94553" lon="0.261">
        <ele>1207.04</ele>
        <time>2018-10-20T08:52:33Z</time>
      </trkpt>
      <trkpt lat="42.94552" lon="0.26102">
        <ele>1207.1</ele>
        <time>2018-10-20T08:52:34Z</time>
      </trkpt>
      <trkpt lat="42.94539" lon="0.26124">
        <ele>1208.15</ele>
        <time>2018-10-20T08:52:50Z</time>
      </trkpt>
      <trkpt lat="42.94533" lon="0.26132">
        <ele>1208.43</ele>
        <time>2018-10-20T08:52:56Z</time>
      </trkpt>
      <trkpt lat="42.94518" lon="0.26155">
        <ele>1209.74</ele>
        <time>2018-10-20T08:53:15Z</time>
      </trkpt>
      <trkpt lat="42.94509" lon="0.26172">
        <ele>1211.42</ele>
        <time>2018-10-20T08:53:33Z</time>
      </trkpt>
      <trkpt lat="42.94498" lon="0.26186">
        <ele>1213.68</ele>
        <time>2018-10-20T08:53:52Z</time>
      </trkpt>
      <trkpt lat="42.94482" lon="0.26198">
        <ele>1215.21</ele>
        <time>2018-10-20T08:54:10Z</time>
      </trkpt>
      <trkpt lat="42.94477" lon="0.26214">
        <ele>1216.87</ele>
        <time>2018-10-20T08:54:25Z</time>
      </trkpt>
      <trkpt lat="42.9448" lon="0.2623">
        <ele>1218.14</ele>
        <time>2018-10-20T08:54:42Z</time>
      </trkpt>
      <trkpt lat="42.94481" lon="0.26247">
        <ele>1220.34</ele>
        <time>2018-10-20T08:54:56Z</time>
      </trkpt>
      <trkpt lat="42.94476" lon="0.26268">
        <ele>1222.99</ele>
        <time>2018-10-20T08:55:13Z</time>
      </trkpt>
      <trkpt lat="42.94464" lon="0.26284">
        <ele>1225.24</ele>
        <time>2018-10-20T08:55:31Z</time>
      </trkpt>
      <trkpt lat="42.94461" lon="0.26289">
        <ele>1225.76</ele>
        <time>2018-10-20T08:55:36Z</time>
      </trkpt>
      <trkpt lat="42.9446" lon="0.26291">
        <ele>1225.89</ele>
        <time>2018-10-20T08:55:38Z</time>
      </trkpt>
      <trkpt lat="42.94444" lon="0.26285">
        <ele>1225.67</ele>
        <time>2018-10-20T08:55:54Z</time>
      </trkpt>
      <trkpt lat="42.9444" lon="0.26282">
        <ele>1225.9</ele>
        <time>2018-10-20T08:56:07Z</time>
      </trkpt>
      <trkpt lat="42.94425" lon="0.26274">
        <ele>1225.58</ele>
        <time>2018-10-20T08:56:25Z</time>
      </trkpt>
      <trkpt lat="42.94413" lon="0.26256">
        <ele>1223.59</ele>
        <time>2018-10-20T08:56:41Z</time>
      </trkpt>
      <trkpt lat="42.94398" lon="0.26242">
        <ele>1222.43</ele>
        <time>2018-10-20T08:56:57Z</time>
      </trkpt>
      <trkpt lat="42.94381" lon="0.26244">
        <ele>1222.6</ele>
        <time>2018-10-20T08:57:14Z</time>
      </trkpt>
      <trkpt lat="42.94379" lon="0.26243">
        <ele>1223</ele>
        <time>2018-10-20T08:57:31Z</time>
      </trkpt>
      <trkpt lat="42.94377" lon="0.26243">
        <ele>1222.93</ele>
        <time>2018-10-20T08:57:37Z</time>
      </trkpt>
      <trkpt lat="42.94374" lon="0.26245">
        <ele>1222.97</ele>
        <time>2018-10-20T08:57:40Z</time>
      </trkpt>
      <trkpt lat="42.94354" lon="0.26245">
        <ele>1223.62</ele>
        <time>2018-10-20T08:57:59Z</time>
      </trkpt>
      <trkpt lat="42.94336" lon="0.26249">
        <ele>1224.52</ele>
        <time>2018-10-20T08:58:16Z</time>
      </trkpt>
      <trkpt lat="42.9432" lon="0.26247">
        <ele>1225.14</ele>
        <time>2018-10-20T08:58:33Z</time>
      </trkpt>
      <trkpt lat="42.94304" lon="0.26243">
        <ele>1225.47</ele>
        <time>2018-10-20T08:58:48Z</time>
      </trkpt>
      <trkpt lat="42.94299" lon="0.26241">
        <ele>1225.85</ele>
        <time>2018-10-20T08:58:54Z</time>
      </trkpt>
      <trkpt lat="42.94282" lon="0.26233">
        <ele>1226.52</ele>
        <time>2018-10-20T08:59:11Z</time>
      </trkpt>
      <trkpt lat="42.94266" lon="0.2622">
        <ele>1228.36</ele>
        <time>2018-10-20T08:59:29Z</time>
      </trkpt>
      <trkpt lat="42.9426" lon="0.26212">
        <ele>1229.21</ele>
        <time>2018-10-20T08:59:37Z</time>
      </trkpt>
      <trkpt lat="42.94249" lon="0.26188">
        <ele>1230.45</ele>
        <time>2018-10-20T08:59:58Z</time>
      </trkpt>
      <trkpt lat="42.94249" lon="0.26187">
        <ele>1230.66</ele>
        <time>2018-10-20T09:00:17Z</time>
      </trkpt>
      <trkpt lat="42.94248" lon="0.26186">
        <ele>1230.6</ele>
        <time>2018-10-20T09:00:30Z</time>
      </trkpt>
      <trkpt lat="42.94229" lon="0.26179">
        <ele>1231.03</ele>
        <time>2018-10-20T09:01:22Z</time>
      </trkpt>
      <trkpt lat="42.94218" lon="0.26175">
        <ele>1230.78</ele>
        <time>2018-10-20T09:01:37Z</time>
      </trkpt>
      <trkpt lat="42.942" lon="0.26175">
        <ele>1231.18</ele>
        <time>2018-10-20T09:01:54Z</time>
      </trkpt>
      <trkpt lat="42.94183" lon="0.26172">
        <ele>1231.85</ele>
        <time>2018-10-20T09:02:10Z</time>
      </trkpt>
      <trkpt lat="42.94169" lon="0.2617">
        <ele>1232.09</ele>
        <time>2018-10-20T09:02:24Z</time>
      </trkpt>
      <trkpt lat="42.94153" lon="0.2617">
        <ele>1232.36</ele>
        <time>2018-10-20T09:02:39Z</time>
      </trkpt>
      <trkpt lat="42.94139" lon="0.2617">
        <ele>1232.76</ele>
        <time>2018-10-20T09:02:52Z</time>
      </trkpt>
      <trkpt lat="42.94126" lon="0.26177">
        <ele>1233.68</ele>
        <time>2018-10-20T09:03:07Z</time>
      </trkpt>
      <trkpt lat="42.94112" lon="0.26178">
        <ele>1235.64</ele>
        <time>2018-10-20T09:03:23Z</time>
      </trkpt>
      <trkpt lat="42.94109" lon="0.26176">
        <ele>1236.11</ele>
        <time>2018-10-20T09:03:30Z</time>
      </trkpt>
      <trkpt lat="42.94107" lon="0.26175">
        <ele>1236.13</ele>
        <time>2018-10-20T09:03:32Z</time>
      </trkpt>
      <trkpt lat="42.94096" lon="0.26156">
        <ele>1236.27</ele>
        <time>2018-10-20T09:03:48Z</time>
      </trkpt>
      <trkpt lat="42.9408" lon="0.26141">
        <ele>1237.25</ele>
        <time>2018-10-20T09:04:08Z</time>
      </trkpt>
      <trkpt lat="42.9407" lon="0.26135">
        <ele>1238.89</ele>
        <time>2018-10-20T09:04:21Z</time>
      </trkpt>
      <trkpt lat="42.94056" lon="0.26119">
        <ele>1240.54</ele>
        <time>2018-10-20T09:04:39Z</time>
      </trkpt>
      <trkpt lat="42.94042" lon="0.26105">
        <ele>1240.57</ele>
        <time>2018-10-20T09:04:56Z</time>
      </trkpt>
      <trkpt lat="42.94035" lon="0.26096">
        <ele>1240.46</ele>
        <time>2018-10-20T09:05:06Z</time>
      </trkpt>
      <trkpt lat="42.94029" lon="0.26072">
        <ele>1238.28</ele>
        <time>2018-10-20T09:05:25Z</time>
      </trkpt>
      <trkpt lat="42.94031" lon="0.26061">
        <ele>1237.05</ele>
        <time>2018-10-20T09:05:41Z</time>
      </trkpt>
      <trkpt lat="42.94029" lon="0.26038">
        <ele>1235.2</ele>
        <time>2018-10-20T09:05:58Z</time>
      </trkpt>
      <trkpt lat="42.94023" lon="0.26018">
        <ele>1232.69</ele>
        <time>2018-10-20T09:06:14Z</time>
      </trkpt>
      <trkpt lat="42.94017" lon="0.26008">
        <ele>1231.2</ele>
        <time>2018-10-20T09:06:23Z</time>
      </trkpt>
      <trkpt lat="42.94011" lon="0.26003">
        <ele>1230.34</ele>
        <time>2018-10-20T09:06:29Z</time>
      </trkpt>
      <trkpt lat="42.93992" lon="0.25986">
        <ele>1228.86</ele>
        <time>2018-10-20T09:06:51Z</time>
      </trkpt>
      <trkpt lat="42.93987" lon="0.25973">
        <ele>1227.94</ele>
        <time>2018-10-20T09:07:03Z</time>
      </trkpt>
      <trkpt lat="42.93982" lon="0.25945">
        <ele>1225.8</ele>
        <time>2018-10-20T09:07:23Z</time>
      </trkpt>
      <trkpt lat="42.93973" lon="0.25924">
        <ele>1225.47</ele>
        <time>2018-10-20T09:07:41Z</time>
      </trkpt>
      <trkpt lat="42.93966" lon="0.25902">
        <ele>1225.48</ele>
        <time>2018-10-20T09:07:57Z</time>
      </trkpt>
      <trkpt lat="42.93965" lon="0.25876">
        <ele>1226.08</ele>
        <time>2018-10-20T09:08:15Z</time>
      </trkpt>
      <trkpt lat="42.93961" lon="0.25859">
        <ele>1226.49</ele>
        <time>2018-10-20T09:08:29Z</time>
      </trkpt>
      <trkpt lat="42.9396" lon="0.25847">
        <ele>1227.2</ele>
        <time>2018-10-20T09:08:42Z</time>
      </trkpt>
      <trkpt lat="42.93959" lon="0.25843">
        <ele>1227.2</ele>
        <time>2018-10-20T09:08:46Z</time>
      </trkpt>
      <trkpt lat="42.93954" lon="0.25817">
        <ele>1227.47</ele>
        <time>2018-10-20T09:09:03Z</time>
      </trkpt>
      <trkpt lat="42.93946" lon="0.25796">
        <ele>1228.04</ele>
        <time>2018-10-20T09:09:19Z</time>
      </trkpt>
      <trkpt lat="42.93935" lon="0.25778">
        <ele>1229.39</ele>
        <time>2018-10-20T09:09:37Z</time>
      </trkpt>
      <trkpt lat="42.93923" lon="0.25759">
        <ele>1230.15</ele>
        <time>2018-10-20T09:09:56Z</time>
      </trkpt>
      <trkpt lat="42.93909" lon="0.25745">
        <ele>1229.34</ele>
        <time>2018-10-20T09:10:13Z</time>
      </trkpt>
      <trkpt lat="42.93903" lon="0.2574">
        <ele>1228.62</ele>
        <time>2018-10-20T09:10:24Z</time>
      </trkpt>
      <trkpt lat="42.939" lon="0.25738">
        <ele>1228.41</ele>
        <time>2018-10-20T09:10:27Z</time>
      </trkpt>
      <trkpt lat="42.9389" lon="0.25732">
        <ele>1228.1</ele>
        <time>2018-10-20T09:10:42Z</time>
      </trkpt>
      <trkpt lat="42.93889" lon="0.25731">
        <ele>1227.74</ele>
        <time>2018-10-20T09:11:07Z</time>
      </trkpt>
      <trkpt lat="42.93902" lon="0.25704">
        <ele>1229.64</ele>
        <time>2018-10-20T09:12:19Z</time>
      </trkpt>
      <trkpt lat="42.93901" lon="0.25699">
        <ele>1229.59</ele>
        <time>2018-10-20T09:12:22Z</time>
      </trkpt>
      <trkpt lat="42.93899" lon="0.25673">
        <ele>1229.97</ele>
        <time>2018-10-20T09:12:41Z</time>
      </trkpt>
      <trkpt lat="42.939" lon="0.25669">
        <ele>1229.99</ele>
        <time>2018-10-20T09:12:44Z</time>
      </trkpt>
      <trkpt lat="42.93904" lon="0.25662">
        <ele>1229.92</ele>
        <time>2018-10-20T09:12:52Z</time>
      </trkpt>
      <trkpt lat="42.93908" lon="0.25657">
        <ele>1230.09</ele>
        <time>2018-10-20T09:12:57Z</time>
      </trkpt>
      <trkpt lat="42.93923" lon="0.25641">
        <ele>1230.54</ele>
        <time>2018-10-20T09:13:16Z</time>
      </trkpt>
      <trkpt lat="42.93929" lon="0.25638">
        <ele>1230.83</ele>
        <time>2018-10-20T09:13:32Z</time>
      </trkpt>
      <trkpt lat="42.9393" lon="0.25626">
        <ele>1231.26</ele>
        <time>2018-10-20T09:13:46Z</time>
      </trkpt>
      <trkpt lat="42.93922" lon="0.25613">
        <ele>1231.99</ele>
        <time>2018-10-20T09:14:01Z</time>
      </trkpt>
      <trkpt lat="42.93918" lon="0.25605">
        <ele>1232.7</ele>
        <time>2018-10-20T09:14:18Z</time>
      </trkpt>
      <trkpt lat="42.93913" lon="0.25606">
        <ele>1232.88</ele>
        <time>2018-10-20T09:14:32Z</time>
      </trkpt>
      <trkpt lat="42.93902" lon="0.25599">
        <ele>1233.02</ele>
        <time>2018-10-20T09:14:46Z</time>
      </trkpt>
      <trkpt lat="42.93894" lon="0.25577">
        <ele>1234.57</ele>
        <time>2018-10-20T09:15:05Z</time>
      </trkpt>
      <trkpt lat="42.93887" lon="0.2557">
        <ele>1235.26</ele>
        <time>2018-10-20T09:15:21Z</time>
      </trkpt>
      <trkpt lat="42.93885" lon="0.25567">
        <ele>1235.37</ele>
        <time>2018-10-20T09:15:25Z</time>
      </trkpt>
      <trkpt lat="42.93874" lon="0.25558">
        <ele>1236.1</ele>
        <time>2018-10-20T09:15:39Z</time>
      </trkpt>
      <trkpt lat="42.9387" lon="0.25545">
        <ele>1237.24</ele>
        <time>2018-10-20T09:15:53Z</time>
      </trkpt>
      <trkpt lat="42.93868" lon="0.25538">
        <ele>1237.99</ele>
        <time>2018-10-20T09:16:10Z</time>
      </trkpt>
      <trkpt lat="42.93866" lon="0.25523">
        <ele>1239.05</ele>
        <time>2018-10-20T09:16:26Z</time>
      </trkpt>
      <trkpt lat="42.93863" lon="0.25501">
        <ele>1241.21</ele>
        <time>2018-10-20T09:16:45Z</time>
      </trkpt>
      <trkpt lat="42.93862" lon="0.25487">
        <ele>1242.68</ele>
        <time>2018-10-20T09:16:58Z</time>
      </trkpt>
      <trkpt lat="42.9386" lon="0.25478">
        <ele>1243.2</ele>
        <time>2018-10-20T09:17:04Z</time>
      </trkpt>
      <trkpt lat="42.93853" lon="0.25453">
        <ele>1244.43</ele>
        <time>2018-10-20T09:17:24Z</time>
      </trkpt>
      <trkpt lat="42.93853" lon="0.25452">
        <ele>1244.47</ele>
        <time>2018-10-20T09:17:25Z</time>
      </trkpt>
      <trkpt lat="42.93852" lon="0.25438">
        <ele>1244.66</ele>
        <time>2018-10-20T09:17:42Z</time>
      </trkpt>
      <trkpt lat="42.93852" lon="0.25437">
        <ele>1244.66</ele>
        <time>2018-10-20T09:17:43Z</time>
      </trkpt>
      <trkpt lat="42.93853" lon="0.25427">
        <ele>1245.01</ele>
        <time>2018-10-20T09:18:00Z</time>
      </trkpt>
      <trkpt lat="42.93861" lon="0.25421">
        <ele>1245.29</ele>
        <time>2018-10-20T09:18:10Z</time>
      </trkpt>
      <trkpt lat="42.93872" lon="0.25401">
        <ele>1246.37</ele>
        <time>2018-10-20T09:18:29Z</time>
      </trkpt>
      <trkpt lat="42.93878" lon="0.2539">
        <ele>1246.88</ele>
        <time>2018-10-20T09:18:47Z</time>
      </trkpt>
      <trkpt lat="42.93885" lon="0.25375">
        <ele>1247.13</ele>
        <time>2018-10-20T09:19:04Z</time>
      </trkpt>
      <trkpt lat="42.93885" lon="0.25369">
        <ele>1247.41</ele>
        <time>2018-10-20T09:19:21Z</time>
      </trkpt>
      <trkpt lat="42.93886" lon="0.25368">
        <ele>1247.38</ele>
        <time>2018-10-20T09:19:41Z</time>
      </trkpt>
      <trkpt lat="42.93901" lon="0.25379">
        <ele>1247.84</ele>
        <time>2018-10-20T09:20:20Z</time>
      </trkpt>
      <trkpt lat="42.93905" lon="0.25388">
        <ele>1247.98</ele>
        <time>2018-10-20T09:20:33Z</time>
      </trkpt>
      <trkpt lat="42.93905" lon="0.25387">
        <ele>1258.3</ele>
        <time>2018-10-20T09:21:27Z</time>
      </trkpt>
      <trkpt lat="42.93905" lon="0.2539">
        <ele>1258.29</ele>
        <time>2018-10-20T09:21:28Z</time>
      </trkpt>
      <trkpt lat="42.93909" lon="0.25399">
        <ele>1257.73</ele>
        <time>2018-10-20T09:21:52Z</time>
      </trkpt>
      <trkpt lat="42.93913" lon="0.25407">
        <ele>1258.51</ele>
        <time>2018-10-20T09:22:04Z</time>
      </trkpt>
      <trkpt lat="42.93915" lon="0.25408">
        <ele>1258.55</ele>
        <time>2018-10-20T09:22:06Z</time>
      </trkpt>
      <trkpt lat="42.93926" lon="0.25421">
        <ele>1260.31</ele>
        <time>2018-10-20T09:22:23Z</time>
      </trkpt>
      <trkpt lat="42.93934" lon="0.25431">
        <ele>1261.87</ele>
        <time>2018-10-20T09:22:41Z</time>
      </trkpt>
      <trkpt lat="42.93943" lon="0.2544">
        <ele>1263.94</ele>
        <time>2018-10-20T09:22:57Z</time>
      </trkpt>
      <trkpt lat="42.93951" lon="0.25456">
        <ele>1265.4</ele>
        <time>2018-10-20T09:23:13Z</time>
      </trkpt>
      <trkpt lat="42.93956" lon="0.25464">
        <ele>1266.28</ele>
        <time>2018-10-20T09:23:24Z</time>
      </trkpt>
      <trkpt lat="42.93961" lon="0.2547">
        <ele>1266.65</ele>
        <time>2018-10-20T09:23:31Z</time>
      </trkpt>
      <trkpt lat="42.9397" lon="0.25485">
        <ele>1267.64</ele>
        <time>2018-10-20T09:23:46Z</time>
      </trkpt>
      <trkpt lat="42.9398" lon="0.255">
        <ele>1268.75</ele>
        <time>2018-10-20T09:24:03Z</time>
      </trkpt>
      <trkpt lat="42.93983" lon="0.25505">
        <ele>1268.27</ele>
        <time>2018-10-20T09:24:10Z</time>
      </trkpt>
      <trkpt lat="42.93987" lon="0.25513">
        <ele>1268.53</ele>
        <time>2018-10-20T09:24:24Z</time>
      </trkpt>
      <trkpt lat="42.93991" lon="0.2552">
        <ele>1268.22</ele>
        <time>2018-10-20T09:24:36Z</time>
      </trkpt>
      <trkpt lat="42.94002" lon="0.25535">
        <ele>1267.47</ele>
        <time>2018-10-20T09:24:52Z</time>
      </trkpt>
      <trkpt lat="42.94004" lon="0.25539">
        <ele>1267.39</ele>
        <time>2018-10-20T09:24:55Z</time>
      </trkpt>
      <trkpt lat="42.94007" lon="0.25542">
        <ele>1267.28</ele>
        <time>2018-10-20T09:24:58Z</time>
      </trkpt>
      <trkpt lat="42.94021" lon="0.25555">
        <ele>1266.84</ele>
        <time>2018-10-20T09:25:16Z</time>
      </trkpt>
      <trkpt lat="42.94024" lon="0.25559">
        <ele>1266.94</ele>
        <time>2018-10-20T09:25:35Z</time>
      </trkpt>
      <trkpt lat="42.94035" lon="0.2557">
        <ele>1267.08</ele>
        <time>2018-10-20T09:25:48Z</time>
      </trkpt>
      <trkpt lat="42.94038" lon="0.25571">
        <ele>1267.35</ele>
        <time>2018-10-20T09:25:51Z</time>
      </trkpt>
      <trkpt lat="42.94041" lon="0.25579">
        <ele>1267.49</ele>
        <time>2018-10-20T09:25:57Z</time>
      </trkpt>
      <trkpt lat="42.94045" lon="0.2558">
        <ele>1267.32</ele>
        <time>2018-10-20T09:26:02Z</time>
      </trkpt>
      <trkpt lat="42.94047" lon="0.25579">
        <ele>1267.29</ele>
        <time>2018-10-20T09:26:04Z</time>
      </trkpt>
      <trkpt lat="42.94058" lon="0.25587">
        <ele>1267.16</ele>
        <time>2018-10-20T09:26:21Z</time>
      </trkpt>
      <trkpt lat="42.94062" lon="0.25589">
        <ele>1266.92</ele>
        <time>2018-10-20T09:26:28Z</time>
      </trkpt>
      <trkpt lat="42.94064" lon="0.2559">
        <ele>1266.83</ele>
        <time>2018-10-20T09:26:30Z</time>
      </trkpt>
      <trkpt lat="42.94076" lon="0.25598">
        <ele>1266.25</ele>
        <time>2018-10-20T09:26:49Z</time>
      </trkpt>
      <trkpt lat="42.94079" lon="0.25599">
        <ele>1266.11</ele>
        <time>2018-10-20T09:27:00Z</time>
      </trkpt>
      <trkpt lat="42.94082" lon="0.25603">
        <ele>1266.1</ele>
        <time>2018-10-20T09:27:03Z</time>
      </trkpt>
      <trkpt lat="42.94091" lon="0.256">
        <ele>1266.24</ele>
        <time>2018-10-20T09:27:18Z</time>
      </trkpt>
      <trkpt lat="42.94095" lon="0.25593">
        <ele>1267.91</ele>
        <time>2018-10-20T09:27:32Z</time>
      </trkpt>
      <trkpt lat="42.94101" lon="0.25584">
        <ele>1270.26</ele>
        <time>2018-10-20T09:27:51Z</time>
      </trkpt>
      <trkpt lat="42.94105" lon="0.2558">
        <ele>1271.56</ele>
        <time>2018-10-20T09:28:09Z</time>
      </trkpt>
      <trkpt lat="42.94105" lon="0.25577">
        <ele>1272.65</ele>
        <time>2018-10-20T09:28:28Z</time>
      </trkpt>
      <trkpt lat="42.94107" lon="0.25576">
        <ele>1273.08</ele>
        <time>2018-10-20T09:28:43Z</time>
      </trkpt>
      <trkpt lat="42.93974" lon="0.25205">
        <ele>1322.74</ele>
        <time>2018-10-20T09:44:15Z</time>
      </trkpt>
      <trkpt lat="42.93972" lon="0.25199">
        <ele>1322.96</ele>
        <time>2018-10-20T09:44:20Z</time>
      </trkpt>
      <trkpt lat="42.93962" lon="0.25195">
        <ele>1323.27</ele>
        <time>2018-10-20T09:44:34Z</time>
      </trkpt>
      <trkpt lat="42.93953" lon="0.25186">
        <ele>1323.96</ele>
        <time>2018-10-20T09:44:48Z</time>
      </trkpt>
      <trkpt lat="42.93944" lon="0.25176">
        <ele>1325.85</ele>
        <time>2018-10-20T09:45:05Z</time>
      </trkpt>
      <trkpt lat="42.93934" lon="0.25167">
        <ele>1326.98</ele>
        <time>2018-10-20T09:45:21Z</time>
      </trkpt>
      <trkpt lat="42.93931" lon="0.25164">
        <ele>1327.56</ele>
        <time>2018-10-20T09:45:26Z</time>
      </trkpt>
      <trkpt lat="42.93919" lon="0.2515">
        <ele>1329.17</ele>
        <time>2018-10-20T09:45:43Z</time>
      </trkpt>
      <trkpt lat="42.93914" lon="0.25145">
        <ele>1329.31</ele>
        <time>2018-10-20T09:45:51Z</time>
      </trkpt>
      <trkpt lat="42.93899" lon="0.25132">
        <ele>1329.05</ele>
        <time>2018-10-20T09:46:10Z</time>
      </trkpt>
      <trkpt lat="42.93898" lon="0.25131">
        <ele>1329.07</ele>
        <time>2018-10-20T09:46:11Z</time>
      </trkpt>
      <trkpt lat="42.93882" lon="0.25122">
        <ele>1329.68</ele>
        <time>2018-10-20T09:46:30Z</time>
      </trkpt>
      <trkpt lat="42.93871" lon="0.25114">
        <ele>1330.59</ele>
        <time>2018-10-20T09:46:44Z</time>
      </trkpt>
      <trkpt lat="42.93864" lon="0.25106">
        <ele>1331.76</ele>
        <time>2018-10-20T09:46:59Z</time>
      </trkpt>
      <trkpt lat="42.93858" lon="0.25098">
        <ele>1332.87</ele>
        <time>2018-10-20T09:47:16Z</time>
      </trkpt>
      <trkpt lat="42.93854" lon="0.25096">
        <ele>1332.87</ele>
        <time>2018-10-20T09:47:21Z</time>
      </trkpt>
      <trkpt lat="42.93846" lon="0.25084">
        <ele>1332.65</ele>
        <time>2018-10-20T09:47:35Z</time>
      </trkpt>
      <trkpt lat="42.93846" lon="0.25083">
        <ele>1332.63</ele>
        <time>2018-10-20T09:47:36Z</time>
      </trkpt>
      <trkpt lat="42.93838" lon="0.25073">
        <ele>1331.96</ele>
        <time>2018-10-20T09:47:49Z</time>
      </trkpt>
      <trkpt lat="42.93829" lon="0.25068">
        <ele>1332.56</ele>
        <time>2018-10-20T09:48:04Z</time>
      </trkpt>
      <trkpt lat="42.93819" lon="0.2506">
        <ele>1334</ele>
        <time>2018-10-20T09:48:20Z</time>
      </trkpt>
      <trkpt lat="42.93813" lon="0.25052">
        <ele>1336.22</ele>
        <time>2018-10-20T09:48:36Z</time>
      </trkpt>
      <trkpt lat="42.93804" lon="0.25043">
        <ele>1338.94</ele>
        <time>2018-10-20T09:48:53Z</time>
      </trkpt>
      <trkpt lat="42.93798" lon="0.25032">
        <ele>1341.1</ele>
        <time>2018-10-20T09:49:08Z</time>
      </trkpt>
      <trkpt lat="42.93793" lon="0.25024">
        <ele>1343.36</ele>
        <time>2018-10-20T09:49:24Z</time>
      </trkpt>
      <trkpt lat="42.93792" lon="0.25022">
        <ele>1344.07</ele>
        <time>2018-10-20T09:49:48Z</time>
      </trkpt>
      <trkpt lat="42.93739" lon="0.24996">
        <ele>1346.49</ele>
        <time>2018-10-20T09:52:52Z</time>
      </trkpt>
      <trkpt lat="42.93738" lon="0.24995">
        <ele>1346.49</ele>
        <time>2018-10-20T09:52:53Z</time>
      </trkpt>
      <trkpt lat="42.93716" lon="0.24989">
        <ele>1347.41</ele>
        <time>2018-10-20T09:53:10Z</time>
      </trkpt>
      <trkpt lat="42.93708" lon="0.24987">
        <ele>1347.68</ele>
        <time>2018-10-20T09:53:20Z</time>
      </trkpt>
      <trkpt lat="42.93704" lon="0.24986">
        <ele>1347.73</ele>
        <time>2018-10-20T09:53:24Z</time>
      </trkpt>
      <trkpt lat="42.93699" lon="0.24984">
        <ele>1347.89</ele>
        <time>2018-10-20T09:53:29Z</time>
      </trkpt>
      <trkpt lat="42.93677" lon="0.2498">
        <ele>1348.11</ele>
        <time>2018-10-20T09:53:46Z</time>
      </trkpt>
      <trkpt lat="42.93659" lon="0.24978">
        <ele>1348.24</ele>
        <time>2018-10-20T09:54:00Z</time>
      </trkpt>
      <trkpt lat="42.93641" lon="0.24975">
        <ele>1348.49</ele>
        <time>2018-10-20T09:54:14Z</time>
      </trkpt>
      <trkpt lat="42.93621" lon="0.24971">
        <ele>1349.88</ele>
        <time>2018-10-20T09:54:29Z</time>
      </trkpt>
      <trkpt lat="42.93617" lon="0.24965">
        <ele>1350.26</ele>
        <time>2018-10-20T09:54:45Z</time>
      </trkpt>
      <trkpt lat="42.936" lon="0.24962">
        <ele>1350.31</ele>
        <time>2018-10-20T09:55:01Z</time>
      </trkpt>
      <trkpt lat="42.93591" lon="0.24961">
        <ele>1350.68</ele>
        <time>2018-10-20T09:55:15Z</time>
      </trkpt>
      <trkpt lat="42.93589" lon="0.24961">
        <ele>1350.76</ele>
        <time>2018-10-20T09:55:17Z</time>
      </trkpt>
      <trkpt lat="42.93577" lon="0.24959">
        <ele>1351.15</ele>
        <time>2018-10-20T09:55:31Z</time>
      </trkpt>
      <trkpt lat="42.93561" lon="0.24955">
        <ele>1351.71</ele>
        <time>2018-10-20T09:55:47Z</time>
      </trkpt>
      <trkpt lat="42.93542" lon="0.24955">
        <ele>1351.84</ele>
        <time>2018-10-20T09:56:04Z</time>
      </trkpt>
      <trkpt lat="42.93526" lon="0.24954">
        <ele>1351.82</ele>
        <time>2018-10-20T09:56:19Z</time>
      </trkpt>
      <trkpt lat="42.93512" lon="0.24952">
        <ele>1351.98</ele>
        <time>2018-10-20T09:56:34Z</time>
      </trkpt>
      <trkpt lat="42.93495" lon="0.24954">
        <ele>1352.38</ele>
        <time>2018-10-20T09:56:50Z</time>
      </trkpt>
      <trkpt lat="42.93479" lon="0.24954">
        <ele>1351.69</ele>
        <time>2018-10-20T09:57:05Z</time>
      </trkpt>
      <trkpt lat="42.93461" lon="0.24953">
        <ele>1350.42</ele>
        <time>2018-10-20T09:57:21Z</time>
      </trkpt>
      <trkpt lat="42.93442" lon="0.2495">
        <ele>1349.59</ele>
        <time>2018-10-20T09:57:38Z</time>
      </trkpt>
      <trkpt lat="42.93428" lon="0.24948">
        <ele>1348.68</ele>
        <time>2018-10-20T09:57:50Z</time>
      </trkpt>
      <trkpt lat="42.93419" lon="0.24945">
        <ele>1348.14</ele>
        <time>2018-10-20T09:58:00Z</time>
      </trkpt>
      <trkpt lat="42.93416" lon="0.24945">
        <ele>1348</ele>
        <time>2018-10-20T09:58:02Z</time>
      </trkpt>
      <trkpt lat="42.93397" lon="0.24942">
        <ele>1346.26</ele>
        <time>2018-10-20T09:58:18Z</time>
      </trkpt>
      <trkpt lat="42.93381" lon="0.24938">
        <ele>1345.71</ele>
        <time>2018-10-20T09:58:32Z</time>
      </trkpt>
      <trkpt lat="42.93377" lon="0.24937">
        <ele>1345.61</ele>
        <time>2018-10-20T09:58:35Z</time>
      </trkpt>
      <trkpt lat="42.93359" lon="0.24931">
        <ele>1345.4</ele>
        <time>2018-10-20T09:58:52Z</time>
      </trkpt>
      <trkpt lat="42.93343" lon="0.24917">
        <ele>1344.92</ele>
        <time>2018-10-20T09:59:09Z</time>
      </trkpt>
      <trkpt lat="42.93329" lon="0.24902">
        <ele>1345.11</ele>
        <time>2018-10-20T09:59:25Z</time>
      </trkpt>
      <trkpt lat="42.93311" lon="0.24883">
        <ele>1344.57</ele>
        <time>2018-10-20T09:59:44Z</time>
      </trkpt>
      <trkpt lat="42.93296" lon="0.24869">
        <ele>1344.04</ele>
        <time>2018-10-20T10:00:01Z</time>
      </trkpt>
      <trkpt lat="42.93286" lon="0.24857">
        <ele>1344.65</ele>
        <time>2018-10-20T10:00:18Z</time>
      </trkpt>
      <trkpt lat="42.93281" lon="0.2485">
        <ele>1345.03</ele>
        <time>2018-10-20T10:00:35Z</time>
      </trkpt>
      <trkpt lat="42.93273" lon="0.24842">
        <ele>1344.98</ele>
        <time>2018-10-20T10:00:51Z</time>
      </trkpt>
      <trkpt lat="42.93262" lon="0.24833">
        <ele>1344.7</ele>
        <time>2018-10-20T10:01:07Z</time>
      </trkpt>
      <trkpt lat="42.93251" lon="0.24824">
        <ele>1344.51</ele>
        <time>2018-10-20T10:01:22Z</time>
      </trkpt>
      <trkpt lat="42.9324" lon="0.24813">
        <ele>1343.67</ele>
        <time>2018-10-20T10:01:38Z</time>
      </trkpt>
      <trkpt lat="42.93236" lon="0.24808">
        <ele>1343.45</ele>
        <time>2018-10-20T10:01:58Z</time>
      </trkpt>
      <trkpt lat="42.93237" lon="0.24804">
        <ele>1342.92</ele>
        <time>2018-10-20T10:02:12Z</time>
      </trkpt>
      <trkpt lat="42.9322" lon="0.24804">
        <ele>1340.39</ele>
        <time>2018-10-20T10:02:51Z</time>
      </trkpt>
      <trkpt lat="42.93215" lon="0.24812">
        <ele>1337.53</ele>
        <time>2018-10-20T10:03:03Z</time>
      </trkpt>
      <trkpt lat="42.93211" lon="0.24817">
        <ele>1336.03</ele>
        <time>2018-10-20T10:03:16Z</time>
      </trkpt>
      <trkpt lat="42.93216" lon="0.24824">
        <ele>1333.73</ele>
        <time>2018-10-20T10:03:29Z</time>
      </trkpt>
      <trkpt lat="42.93225" lon="0.24828">
        <ele>1334.13</ele>
        <time>2018-10-20T10:03:46Z</time>
      </trkpt>
      <trkpt lat="42.9322" lon="0.24818">
        <ele>1335</ele>
        <time>2018-10-20T10:04:01Z</time>
      </trkpt>
      <trkpt lat="42.93225" lon="0.24822">
        <ele>1335.98</ele>
        <time>2018-10-20T10:04:19Z</time>
      </trkpt>
      <trkpt lat="42.9323" lon="0.24822">
        <ele>1335.52</ele>
        <time>2018-10-20T10:04:35Z</time>
      </trkpt>
      <trkpt lat="42.93239" lon="0.24817">
        <ele>1336.1</ele>
        <time>2018-10-20T10:04:50Z</time>
      </trkpt>
      <trkpt lat="42.93238" lon="0.24813">
        <ele>1338.08</ele>
        <time>2018-10-20T10:05:04Z</time>
      </trkpt>
      <trkpt lat="42.93238" lon="0.24822">
        <ele>1338.01</ele>
        <time>2018-10-20T10:05:23Z</time>
      </trkpt>
      <trkpt lat="42.93237" lon="0.24825">
        <ele>1337.78</ele>
        <time>2018-10-20T10:05:38Z</time>
      </trkpt>
      <trkpt lat="42.93233" lon="0.24834">
        <ele>1344.42</ele>
        <time>2018-10-20T10:55:01Z</time>
      </trkpt>
      <trkpt lat="42.93234" lon="0.24831">
        <ele>1344.41</ele>
        <time>2018-10-20T10:55:02Z</time>
      </trkpt>
      <trkpt lat="42.93243" lon="0.24817">
        <ele>1344.39</ele>
        <time>2018-10-20T10:55:23Z</time>
      </trkpt>
      <trkpt lat="42.93244" lon="0.24822">
        <ele>1344.4</ele>
        <time>2018-10-20T10:55:32Z</time>
      </trkpt>
      <trkpt lat="42.93231" lon="0.24792">
        <ele>1347.91</ele>
        <time>2018-10-20T10:59:19Z</time>
      </trkpt>
      <trkpt lat="42.93228" lon="0.2479">
        <ele>1347.96</ele>
        <time>2018-10-20T10:59:22Z</time>
      </trkpt>
      <trkpt lat="42.93223" lon="0.24787">
        <ele>1347.99</ele>
        <time>2018-10-20T10:59:27Z</time>
      </trkpt>
      <trkpt lat="42.93216" lon="0.2478">
        <ele>1347.64</ele>
        <time>2018-10-20T10:59:35Z</time>
      </trkpt>
      <trkpt lat="42.93207" lon="0.2477">
        <ele>1347.37</ele>
        <time>2018-10-20T10:59:48Z</time>
      </trkpt>
      <trkpt lat="42.93205" lon="0.24769">
        <ele>1347.31</ele>
        <time>2018-10-20T10:59:50Z</time>
      </trkpt>
      <trkpt lat="42.93201" lon="0.24765">
        <ele>1347.37</ele>
        <time>2018-10-20T10:59:54Z</time>
      </trkpt>
      <trkpt lat="42.93199" lon="0.24764">
        <ele>1347.43</ele>
        <time>2018-10-20T10:59:56Z</time>
      </trkpt>
      <trkpt lat="42.93188" lon="0.24748">
        <ele>1347.73</ele>
        <time>2018-10-20T11:00:12Z</time>
      </trkpt>
      <trkpt lat="42.93178" lon="0.2473">
        <ele>1348.9</ele>
        <time>2018-10-20T11:00:31Z</time>
      </trkpt>
      <trkpt lat="42.93166" lon="0.24714">
        <ele>1349.12</ele>
        <time>2018-10-20T11:00:50Z</time>
      </trkpt>
      <trkpt lat="42.93155" lon="0.24709">
        <ele>1348.81</ele>
        <time>2018-10-20T11:01:08Z</time>
      </trkpt>
      <trkpt lat="42.93152" lon="0.24707">
        <ele>1348.75</ele>
        <time>2018-10-20T11:01:15Z</time>
      </trkpt>
      <trkpt lat="42.93149" lon="0.24706">
        <ele>1348.79</ele>
        <time>2018-10-20T11:01:18Z</time>
      </trkpt>
      <trkpt lat="42.93137" lon="0.24694">
        <ele>1348.62</ele>
        <time>2018-10-20T11:01:32Z</time>
      </trkpt>
      <trkpt lat="42.93136" lon="0.24693">
        <ele>1348.62</ele>
        <time>2018-10-20T11:01:33Z</time>
      </trkpt>
      <trkpt lat="42.93134" lon="0.24691">
        <ele>1348.64</ele>
        <time>2018-10-20T11:01:36Z</time>
      </trkpt>
      <trkpt lat="42.9312" lon="0.24675">
        <ele>1349.52</ele>
        <time>2018-10-20T11:01:54Z</time>
      </trkpt>
      <trkpt lat="42.93109" lon="0.24663">
        <ele>1349.53</ele>
        <time>2018-10-20T11:02:10Z</time>
      </trkpt>
      <trkpt lat="42.931" lon="0.2465">
        <ele>1349.9</ele>
        <time>2018-10-20T11:02:25Z</time>
      </trkpt>
      <trkpt lat="42.93089" lon="0.24644">
        <ele>1349.32</ele>
        <time>2018-10-20T11:02:40Z</time>
      </trkpt>
      <trkpt lat="42.93089" lon="0.24647">
        <ele>1349.12</ele>
        <time>2018-10-20T11:02:54Z</time>
      </trkpt>
      <trkpt lat="42.93091" lon="0.24655">
        <ele>1348.48</ele>
        <time>2018-10-20T11:03:01Z</time>
      </trkpt>
      <trkpt lat="42.93091" lon="0.24671">
        <ele>1346.04</ele>
        <time>2018-10-20T11:03:16Z</time>
      </trkpt>
      <trkpt lat="42.9309" lon="0.2467">
        <ele>1344.24</ele>
        <time>2018-10-20T11:03:34Z</time>
      </trkpt>
      <trkpt lat="42.93094" lon="0.24663">
        <ele>1344.7</ele>
        <time>2018-10-20T11:03:49Z</time>
      </trkpt>
      <trkpt lat="42.93096" lon="0.24661">
        <ele>1345.84</ele>
        <time>2018-10-20T11:04:01Z</time>
      </trkpt>
      <trkpt lat="42.93096" lon="0.24664">
        <ele>1345.84</ele>
        <time>2018-10-20T11:04:18Z</time>
      </trkpt>
      <trkpt lat="42.93105" lon="0.24686">
        <ele>1343.64</ele>
        <time>2018-10-20T11:04:38Z</time>
      </trkpt>
      <trkpt lat="42.93108" lon="0.24689">
        <ele>1344.65</ele>
        <time>2018-10-20T11:05:01Z</time>
      </trkpt>
      <trkpt lat="42.93107" lon="0.2469">
        <ele>1344.55</ele>
        <time>2018-10-20T11:05:06Z</time>
      </trkpt>
      <trkpt lat="42.93101" lon="0.24682">
        <ele>1343.9</ele>
        <time>2018-10-20T11:08:27Z</time>
      </trkpt>
      <trkpt lat="42.931" lon="0.24679">
        <ele>1343.42</ele>
        <time>2018-10-20T11:08:30Z</time>
      </trkpt>
      <trkpt lat="42.93098" lon="0.24676">
        <ele>1343.49</ele>
        <time>2018-10-20T11:08:33Z</time>
      </trkpt>
      <trkpt lat="42.93093" lon="0.24669">
        <ele>1344.36</ele>
        <time>2018-10-20T11:08:44Z</time>
      </trkpt>
      <trkpt lat="42.93092" lon="0.24667">
        <ele>1344.54</ele>
        <time>2018-10-20T11:08:46Z</time>
      </trkpt>
      <trkpt lat="42.93094" lon="0.24658">
        <ele>1346.02</ele>
        <time>2018-10-20T11:09:03Z</time>
      </trkpt>
      <trkpt lat="42.93093" lon="0.24646">
        <ele>1347.8</ele>
        <time>2018-10-20T11:09:19Z</time>
      </trkpt>
      <trkpt lat="42.93093" lon="0.24642">
        <ele>1348.34</ele>
        <time>2018-10-20T11:09:27Z</time>
      </trkpt>
      <trkpt lat="42.93091" lon="0.2464">
        <ele>1348.5</ele>
        <time>2018-10-20T11:09:29Z</time>
      </trkpt>
      <trkpt lat="42.93077" lon="0.24624">
        <ele>1349.54</ele>
        <time>2018-10-20T11:09:49Z</time>
      </trkpt>
      <trkpt lat="42.93068" lon="0.24613">
        <ele>1351.28</ele>
        <time>2018-10-20T11:10:09Z</time>
      </trkpt>
      <trkpt lat="42.93071" lon="0.24601">
        <ele>1353</ele>
        <time>2018-10-20T11:10:27Z</time>
      </trkpt>
      <trkpt lat="42.93064" lon="0.24591">
        <ele>1354.61</ele>
        <time>2018-10-20T11:10:43Z</time>
      </trkpt>
      <trkpt lat="42.93059" lon="0.24583">
        <ele>1356.18</ele>
        <time>2018-10-20T11:10:59Z</time>
      </trkpt>
      <trkpt lat="42.93053" lon="0.24572">
        <ele>1358.09</ele>
        <time>2018-10-20T11:11:18Z</time>
      </trkpt>
      <trkpt lat="42.9305" lon="0.24563">
        <ele>1359.64</ele>
        <time>2018-10-20T11:11:37Z</time>
      </trkpt>
      <trkpt lat="42.93051" lon="0.24556">
        <ele>1361.08</ele>
        <time>2018-10-20T11:12:05Z</time>
      </trkpt>
      <trkpt lat="42.93051" lon="0.24556">
        <ele>1361.16</ele>
        <time>2018-10-20T11:12:06Z</time>
      </trkpt>
      <trkpt lat="42.92901" lon="0.24367">
        <ele>1387.94</ele>
        <time>2018-10-20T11:17:07Z</time>
      </trkpt>
      <trkpt lat="42.92888" lon="0.24355">
        <ele>1390.99</ele>
        <time>2018-10-20T11:17:28Z</time>
      </trkpt>
      <trkpt lat="42.9288" lon="0.24349">
        <ele>1392.39</ele>
        <time>2018-10-20T11:17:44Z</time>
      </trkpt>
      <trkpt lat="42.92872" lon="0.24342">
        <ele>1395.09</ele>
        <time>2018-10-20T11:18:03Z</time>
      </trkpt>
      <trkpt lat="42.92866" lon="0.24335">
        <ele>1396.89</ele>
        <time>2018-10-20T11:18:25Z</time>
      </trkpt>
      <trkpt lat="42.92863" lon="0.24332">
        <ele>1399</ele>
        <time>2018-10-20T11:18:48Z</time>
      </trkpt>
      <trkpt lat="42.92862" lon="0.24332">
        <ele>1398.86</ele>
        <time>2018-10-20T11:18:54Z</time>
      </trkpt>
      <trkpt lat="42.92525" lon="0.24121">
        <ele>1487.47</ele>
        <time>2018-10-20T11:33:50Z</time>
      </trkpt>
      <trkpt lat="42.92518" lon="0.24118">
        <ele>1489.22</ele>
        <time>2018-10-20T11:34:06Z</time>
      </trkpt>
      <trkpt lat="42.92514" lon="0.24117">
        <ele>1489.65</ele>
        <time>2018-10-20T11:34:15Z</time>
      </trkpt>
      <trkpt lat="42.92498" lon="0.2412">
        <ele>1490.83</ele>
        <time>2018-10-20T11:34:31Z</time>
      </trkpt>
      <trkpt lat="42.92482" lon="0.24124">
        <ele>1492.57</ele>
        <time>2018-10-20T11:34:50Z</time>
      </trkpt>
      <trkpt lat="42.92471" lon="0.24124">
        <ele>1494.05</ele>
        <time>2018-10-20T11:35:08Z</time>
      </trkpt>
      <trkpt lat="42.92458" lon="0.24126">
        <ele>1495.55</ele>
        <time>2018-10-20T11:35:25Z</time>
      </trkpt>
      <trkpt lat="42.92443" lon="0.24128">
        <ele>1497.57</ele>
        <time>2018-10-20T11:35:45Z</time>
      </trkpt>
      <trkpt lat="42.92434" lon="0.24129">
        <ele>1499.02</ele>
        <time>2018-10-20T11:36:04Z</time>
      </trkpt>
      <trkpt lat="42.9242" lon="0.24128">
        <ele>1500.67</ele>
        <time>2018-10-20T11:36:21Z</time>
      </trkpt>
      <trkpt lat="42.92414" lon="0.24128">
        <ele>1501.5</ele>
        <time>2018-10-20T11:36:31Z</time>
      </trkpt>
      <trkpt lat="42.92403" lon="0.24131">
        <ele>1502.61</ele>
        <time>2018-10-20T11:36:47Z</time>
      </trkpt>
      <trkpt lat="42.92397" lon="0.24131">
        <ele>1502.97</ele>
        <time>2018-10-20T11:36:53Z</time>
      </trkpt>
      <trkpt lat="42.9238" lon="0.24131">
        <ele>1503.98</ele>
        <time>2018-10-20T11:37:11Z</time>
      </trkpt>
      <trkpt lat="42.92366" lon="0.24132">
        <ele>1505.6</ele>
        <time>2018-10-20T11:37:30Z</time>
      </trkpt>
      <trkpt lat="42.9235" lon="0.24134">
        <ele>1507.32</ele>
        <time>2018-10-20T11:37:50Z</time>
      </trkpt>
      <trkpt lat="42.92338" lon="0.24138">
        <ele>1508.74</ele>
        <time>2018-10-20T11:38:09Z</time>
      </trkpt>
      <trkpt lat="42.92324" lon="0.2414">
        <ele>1510.05</ele>
        <time>2018-10-20T11:38:29Z</time>
      </trkpt>
      <trkpt lat="42.92317" lon="0.24143">
        <ele>1510.82</ele>
        <time>2018-10-20T11:38:45Z</time>
      </trkpt>
      <trkpt lat="42.92304" lon="0.24147">
        <ele>1511.53</ele>
        <time>2018-10-20T11:39:04Z</time>
      </trkpt>
      <trkpt lat="42.92291" lon="0.24151">
        <ele>1513.55</ele>
        <time>2018-10-20T11:39:25Z</time>
      </trkpt>
      <trkpt lat="42.92281" lon="0.24151">
        <ele>1515.46</ele>
        <time>2018-10-20T11:39:43Z</time>
      </trkpt>
      <trkpt lat="42.92276" lon="0.24152">
        <ele>1516.2</ele>
        <time>2018-10-20T11:39:50Z</time>
      </trkpt>
      <trkpt lat="42.92261" lon="0.24152">
        <ele>1517.55</ele>
        <time>2018-10-20T11:40:08Z</time>
      </trkpt>
      <trkpt lat="42.92245" lon="0.24155">
        <ele>1518.85</ele>
        <time>2018-10-20T11:40:28Z</time>
      </trkpt>
      <trkpt lat="42.92232" lon="0.2416">
        <ele>1520.4</ele>
        <time>2018-10-20T11:40:48Z</time>
      </trkpt>
      <trkpt lat="42.92218" lon="0.24161">
        <ele>1521.79</ele>
        <time>2018-10-20T11:41:06Z</time>
      </trkpt>
      <trkpt lat="42.92203" lon="0.24164">
        <ele>1523.22</ele>
        <time>2018-10-20T11:41:25Z</time>
      </trkpt>
      <trkpt lat="42.92189" lon="0.2417">
        <ele>1524.42</ele>
        <time>2018-10-20T11:41:44Z</time>
      </trkpt>
      <trkpt lat="42.92176" lon="0.24176">
        <ele>1525.02</ele>
        <time>2018-10-20T11:42:01Z</time>
      </trkpt>
      <trkpt lat="42.92162" lon="0.24176">
        <ele>1526.18</ele>
        <time>2018-10-20T11:42:17Z</time>
      </trkpt>
      <trkpt lat="42.92149" lon="0.2418">
        <ele>1528.19</ele>
        <time>2018-10-20T11:42:37Z</time>
      </trkpt>
      <trkpt lat="42.9214" lon="0.2418">
        <ele>1529.33</ele>
        <time>2018-10-20T11:42:58Z</time>
      </trkpt>
      <trkpt lat="42.92141" lon="0.2418">
        <ele>1529.73</ele>
        <time>2018-10-20T11:43:15Z</time>
      </trkpt>
      <trkpt lat="42.92116" lon="0.24191">
        <ele>1531.3</ele>
        <time>2018-10-20T11:44:29Z</time>
      </trkpt>
      <trkpt lat="42.92101" lon="0.24193">
        <ele>1532.67</ele>
        <time>2018-10-20T11:44:48Z</time>
      </trkpt>
      <trkpt lat="42.92085" lon="0.24197">
        <ele>1534.11</ele>
        <time>2018-10-20T11:45:08Z</time>
      </trkpt>
      <trkpt lat="42.92069" lon="0.24202">
        <ele>1535.19</ele>
        <time>2018-10-20T11:45:26Z</time>
      </trkpt>
      <trkpt lat="42.92059" lon="0.24207">
        <ele>1535.97</ele>
        <time>2018-10-20T11:45:39Z</time>
      </trkpt>
      <trkpt lat="42.92054" lon="0.24208">
        <ele>1536.85</ele>
        <time>2018-10-20T11:45:54Z</time>
      </trkpt>
      <trkpt lat="42.9205" lon="0.24209">
        <ele>1536.73</ele>
        <time>2018-10-20T11:46:02Z</time>
      </trkpt>
      <trkpt lat="42.92033" lon="0.24214">
        <ele>1538.25</ele>
        <time>2018-10-20T11:46:18Z</time>
      </trkpt>
      <trkpt lat="42.92013" lon="0.24218">
        <ele>1539.3</ele>
        <time>2018-10-20T11:46:36Z</time>
      </trkpt>
      <trkpt lat="42.92006" lon="0.24217">
        <ele>1540.11</ele>
        <time>2018-10-20T11:46:52Z</time>
      </trkpt>
      <trkpt lat="42.92006" lon="0.24214">
        <ele>1540.97</ele>
        <time>2018-10-20T11:47:13Z</time>
      </trkpt>
      <trkpt lat="42.92009" lon="0.24213">
        <ele>1540.96</ele>
        <time>2018-10-20T11:47:27Z</time>
      </trkpt>
      <trkpt lat="42.9201" lon="0.24215">
        <ele>1540.73</ele>
        <time>2018-10-20T11:47:55Z</time>
      </trkpt>
      <trkpt lat="42.92001" lon="0.24219">
        <ele>1541.3</ele>
        <time>2018-10-20T11:49:21Z</time>
      </trkpt>
      <trkpt lat="42.91974" lon="0.24222">
        <ele>1542.71</ele>
        <time>2018-10-20T11:49:42Z</time>
      </trkpt>
      <trkpt lat="42.91969" lon="0.24221">
        <ele>1542.96</ele>
        <time>2018-10-20T11:49:45Z</time>
      </trkpt>
      <trkpt lat="42.91947" lon="0.24222">
        <ele>1544.81</ele>
        <time>2018-10-20T11:50:01Z</time>
      </trkpt>
      <trkpt lat="42.91926" lon="0.24221">
        <ele>1546.47</ele>
        <time>2018-10-20T11:50:18Z</time>
      </trkpt>
      <trkpt lat="42.9191" lon="0.24222">
        <ele>1547.24</ele>
        <time>2018-10-20T11:50:29Z</time>
      </trkpt>
      <trkpt lat="42.9189" lon="0.24222">
        <ele>1549.37</ele>
        <time>2018-10-20T11:50:46Z</time>
      </trkpt>
      <trkpt lat="42.91885" lon="0.24221">
        <ele>1549.84</ele>
        <time>2018-10-20T11:50:51Z</time>
      </trkpt>
      <trkpt lat="42.91876" lon="0.24225">
        <ele>1550.62</ele>
        <time>2018-10-20T11:50:59Z</time>
      </trkpt>
      <trkpt lat="42.91853" lon="0.24228">
        <ele>1552.48</ele>
        <time>2018-10-20T11:51:16Z</time>
      </trkpt>
      <trkpt lat="42.91832" lon="0.24227">
        <ele>1553.81</ele>
        <time>2018-10-20T11:51:32Z</time>
      </trkpt>
      <trkpt lat="42.9181" lon="0.24231">
        <ele>1555.13</ele>
        <time>2018-10-20T11:51:49Z</time>
      </trkpt>
      <trkpt lat="42.91791" lon="0.24233">
        <ele>1557.18</ele>
        <time>2018-10-20T11:52:06Z</time>
      </trkpt>
      <trkpt lat="42.9178" lon="0.24233">
        <ele>1558.02</ele>
        <time>2018-10-20T11:52:15Z</time>
      </trkpt>
      <trkpt lat="42.91763" lon="0.24237">
        <ele>1558.35</ele>
        <time>2018-10-20T11:52:31Z</time>
      </trkpt>
      <trkpt lat="42.91761" lon="0.24237">
        <ele>1558.91</ele>
        <time>2018-10-20T11:52:50Z</time>
      </trkpt>
      <trkpt lat="42.91761" lon="0.24237">
        <ele>1558.92</ele>
        <time>2018-10-20T11:52:51Z</time>
      </trkpt>
      <trkpt lat="42.9175" lon="0.24243">
        <ele>1559.96</ele>
        <time>2018-10-20T11:53:07Z</time>
      </trkpt>
      <trkpt lat="42.91743" lon="0.24248">
        <ele>1560.89</ele>
        <time>2018-10-20T11:53:23Z</time>
      </trkpt>
      <trkpt lat="42.91723" lon="0.24256">
        <ele>1561.34</ele>
        <time>2018-10-20T11:53:40Z</time>
      </trkpt>
      <trkpt lat="42.91705" lon="0.24256">
        <ele>1561.91</ele>
        <time>2018-10-20T11:53:57Z</time>
      </trkpt>
      <trkpt lat="42.91695" lon="0.24254">
        <ele>1562.62</ele>
        <time>2018-10-20T11:54:17Z</time>
      </trkpt>
      <trkpt lat="42.91683" lon="0.24258">
        <ele>1563.32</ele>
        <time>2018-10-20T11:54:31Z</time>
      </trkpt>
      <trkpt lat="42.91677" lon="0.24264">
        <ele>1563.79</ele>
        <time>2018-10-20T11:54:46Z</time>
      </trkpt>
      <trkpt lat="42.91672" lon="0.24276">
        <ele>1563.69</ele>
        <time>2018-10-20T11:55:01Z</time>
      </trkpt>
      <trkpt lat="42.91658" lon="0.24284">
        <ele>1564.56</ele>
        <time>2018-10-20T11:55:18Z</time>
      </trkpt>
      <trkpt lat="42.91647" lon="0.24292">
        <ele>1564.95</ele>
        <time>2018-10-20T11:55:33Z</time>
      </trkpt>
      <trkpt lat="42.91641" lon="0.24295">
        <ele>1565.49</ele>
        <time>2018-10-20T11:55:41Z</time>
      </trkpt>
      <trkpt lat="42.91626" lon="0.24305">
        <ele>1566.57</ele>
        <time>2018-10-20T11:56:01Z</time>
      </trkpt>
      <trkpt lat="42.9161" lon="0.24311">
        <ele>1567.77</ele>
        <time>2018-10-20T11:56:19Z</time>
      </trkpt>
      <trkpt lat="42.91604" lon="0.24311">
        <ele>1568.53</ele>
        <time>2018-10-20T11:56:34Z</time>
      </trkpt>
      <trkpt lat="42.91601" lon="0.24312">
        <ele>1568.85</ele>
        <time>2018-10-20T11:56:37Z</time>
      </trkpt>
      <trkpt lat="42.91591" lon="0.24318">
        <ele>1569.86</ele>
        <time>2018-10-20T11:56:50Z</time>
      </trkpt>
      <trkpt lat="42.91578" lon="0.24326">
        <ele>1571.49</ele>
        <time>2018-10-20T11:57:08Z</time>
      </trkpt>
      <trkpt lat="42.91565" lon="0.24327">
        <ele>1572.28</ele>
        <time>2018-10-20T11:57:27Z</time>
      </trkpt>
      <trkpt lat="42.9156" lon="0.2434">
        <ele>1572.69</ele>
        <time>2018-10-20T11:57:43Z</time>
      </trkpt>
      <trkpt lat="42.91541" lon="0.24347">
        <ele>1573.22</ele>
        <time>2018-10-20T11:58:04Z</time>
      </trkpt>
      <trkpt lat="42.91524" lon="0.24345">
        <ele>1573.77</ele>
        <time>2018-10-20T11:58:23Z</time>
      </trkpt>
      <trkpt lat="42.91522" lon="0.24346">
        <ele>1573.86</ele>
        <time>2018-10-20T11:58:26Z</time>
      </trkpt>
      <trkpt lat="42.91519" lon="0.24347">
        <ele>1574.08</ele>
        <time>2018-10-20T11:58:30Z</time>
      </trkpt>
      <trkpt lat="42.91501" lon="0.24353">
        <ele>1575.14</ele>
        <time>2018-10-20T11:58:48Z</time>
      </trkpt>
      <trkpt lat="42.91487" lon="0.24352">
        <ele>1575.52</ele>
        <time>2018-10-20T11:59:04Z</time>
      </trkpt>
      <trkpt lat="42.91475" lon="0.24358">
        <ele>1576.27</ele>
        <time>2018-10-20T11:59:18Z</time>
      </trkpt>
      <trkpt lat="42.91463" lon="0.24361">
        <ele>1577.6</ele>
        <time>2018-10-20T11:59:36Z</time>
      </trkpt>
      <trkpt lat="42.91457" lon="0.24361">
        <ele>1578.35</ele>
        <time>2018-10-20T11:59:54Z</time>
      </trkpt>
      <trkpt lat="42.9145" lon="0.24365">
        <ele>1578.17</ele>
        <time>2018-10-20T12:00:10Z</time>
      </trkpt>
      <trkpt lat="42.91447" lon="0.24365">
        <ele>1578.6</ele>
        <time>2018-10-20T12:00:13Z</time>
      </trkpt>
      <trkpt lat="42.91441" lon="0.24366">
        <ele>1578.82</ele>
        <time>2018-10-20T12:00:19Z</time>
      </trkpt>
      <trkpt lat="42.91422" lon="0.24367">
        <ele>1580.07</ele>
        <time>2018-10-20T12:00:40Z</time>
      </trkpt>
      <trkpt lat="42.91409" lon="0.24366">
        <ele>1580.4</ele>
        <time>2018-10-20T12:00:54Z</time>
      </trkpt>
      <trkpt lat="42.91395" lon="0.24369">
        <ele>1581.21</ele>
        <time>2018-10-20T12:01:10Z</time>
      </trkpt>
      <trkpt lat="42.9138" lon="0.2437">
        <ele>1581.77</ele>
        <time>2018-10-20T12:01:27Z</time>
      </trkpt>
      <trkpt lat="42.91359" lon="0.24369">
        <ele>1582.59</ele>
        <time>2018-10-20T12:01:47Z</time>
      </trkpt>
      <trkpt lat="42.91343" lon="0.24365">
        <ele>1583.2</ele>
        <time>2018-10-20T12:02:03Z</time>
      </trkpt>
      <trkpt lat="42.91324" lon="0.24363">
        <ele>1584.34</ele>
        <time>2018-10-20T12:02:22Z</time>
      </trkpt>
      <trkpt lat="42.91324" lon="0.24367">
        <ele>1583.11</ele>
        <time>2018-10-20T12:02:38Z</time>
      </trkpt>
      <trkpt lat="42.91324" lon="0.24367">
        <ele>1583.05</ele>
        <time>2018-10-20T12:02:54Z</time>
      </trkpt>
      <trkpt lat="42.91312" lon="0.24364">
        <ele>1584.79</ele>
        <time>2018-10-20T12:03:51Z</time>
      </trkpt>
      <trkpt lat="42.91308" lon="0.24366">
        <ele>1585.26</ele>
        <time>2018-10-20T12:03:57Z</time>
      </trkpt>
      <trkpt lat="42.91302" lon="0.24364">
        <ele>1585.69</ele>
        <time>2018-10-20T12:04:05Z</time>
      </trkpt>
      <trkpt lat="42.91291" lon="0.24354">
        <ele>1586.56</ele>
        <time>2018-10-20T12:04:22Z</time>
      </trkpt>
      <trkpt lat="42.91286" lon="0.24353">
        <ele>1586.68</ele>
        <time>2018-10-20T12:04:27Z</time>
      </trkpt>
      <trkpt lat="42.91268" lon="0.24347">
        <ele>1587.73</ele>
        <time>2018-10-20T12:04:45Z</time>
      </trkpt>
      <trkpt lat="42.91251" lon="0.24345">
        <ele>1588.69</ele>
        <time>2018-10-20T12:05:01Z</time>
      </trkpt>
      <trkpt lat="42.91239" lon="0.24338">
        <ele>1589.97</ele>
        <time>2018-10-20T12:05:17Z</time>
      </trkpt>
      <trkpt lat="42.91224" lon="0.24329">
        <ele>1591.46</ele>
        <time>2018-10-20T12:05:36Z</time>
      </trkpt>
      <trkpt lat="42.91209" lon="0.24327">
        <ele>1592.25</ele>
        <time>2018-10-20T12:05:54Z</time>
      </trkpt>
      <trkpt lat="42.91209" lon="0.24327">
        <ele>1592.29</ele>
        <time>2018-10-20T12:05:55Z</time>
      </trkpt>
      <trkpt lat="42.91191" lon="0.24332">
        <ele>1592.05</ele>
        <time>2018-10-20T12:06:13Z</time>
      </trkpt>
      <trkpt lat="42.9119" lon="0.24332">
        <ele>1592.06</ele>
        <time>2018-10-20T12:06:14Z</time>
      </trkpt>
      <trkpt lat="42.91175" lon="0.24335">
        <ele>1593.62</ele>
        <time>2018-10-20T12:06:34Z</time>
      </trkpt>
      <trkpt lat="42.91169" lon="0.24323">
        <ele>1596.58</ele>
        <time>2018-10-20T12:06:53Z</time>
      </trkpt>
      <trkpt lat="42.91163" lon="0.24316">
        <ele>1599.45</ele>
        <time>2018-10-20T12:07:09Z</time>
      </trkpt>
      <trkpt lat="42.91154" lon="0.24306">
        <ele>1602.33</ele>
        <time>2018-10-20T12:07:27Z</time>
      </trkpt>
      <trkpt lat="42.9115" lon="0.24296">
        <ele>1605.41</ele>
        <time>2018-10-20T12:07:46Z</time>
      </trkpt>
      <trkpt lat="42.91142" lon="0.24289">
        <ele>1607.43</ele>
        <time>2018-10-20T12:08:03Z</time>
      </trkpt>
      <trkpt lat="42.91135" lon="0.24276">
        <ele>1610.34</ele>
        <time>2018-10-20T12:08:21Z</time>
      </trkpt>
      <trkpt lat="42.91132" lon="0.24269">
        <ele>1611.72</ele>
        <time>2018-10-20T12:08:37Z</time>
      </trkpt>
      <trkpt lat="42.91126" lon="0.24259">
        <ele>1614.9</ele>
        <time>2018-10-20T12:08:54Z</time>
      </trkpt>
      <trkpt lat="42.9112" lon="0.24249">
        <ele>1617.89</ele>
        <time>2018-10-20T12:09:11Z</time>
      </trkpt>
      <trkpt lat="42.91113" lon="0.2424">
        <ele>1620.96</ele>
        <time>2018-10-20T12:09:29Z</time>
      </trkpt>
      <trkpt lat="42.91109" lon="0.24233">
        <ele>1623.97</ele>
        <time>2018-10-20T12:09:44Z</time>
      </trkpt>
      <trkpt lat="42.91107" lon="0.24231">
        <ele>1625.46</ele>
        <time>2018-10-20T12:09:52Z</time>
      </trkpt>
      <trkpt lat="42.91079" lon="0.24201">
        <ele>1634.32</ele>
        <time>2018-10-20T12:11:15Z</time>
      </trkpt>
      <trkpt lat="42.91076" lon="0.24184">
        <ele>1637.15</ele>
        <time>2018-10-20T12:11:32Z</time>
      </trkpt>
      <trkpt lat="42.91075" lon="0.24171">
        <ele>1640.21</ele>
        <time>2018-10-20T12:11:47Z</time>
      </trkpt>
      <trkpt lat="42.91073" lon="0.24153">
        <ele>1643.12</ele>
        <time>2018-10-20T12:12:04Z</time>
      </trkpt>
      <trkpt lat="42.91069" lon="0.24141">
        <ele>1646.36</ele>
        <time>2018-10-20T12:12:21Z</time>
      </trkpt>
      <trkpt lat="42.91061" lon="0.24131">
        <ele>1648.9</ele>
        <time>2018-10-20T12:12:38Z</time>
      </trkpt>
      <trkpt lat="42.9106" lon="0.24132">
        <ele>1648.3</ele>
        <time>2018-10-20T12:13:05Z</time>
      </trkpt>
      <trkpt lat="42.91037" lon="0.24082">
        <ele>1653.19</ele>
        <time>2018-10-20T12:14:36Z</time>
      </trkpt>
      <trkpt lat="42.91022" lon="0.24066">
        <ele>1654.28</ele>
        <time>2018-10-20T12:14:56Z</time>
      </trkpt>
      <trkpt lat="42.91019" lon="0.24066">
        <ele>1654.73</ele>
        <time>2018-10-20T12:15:01Z</time>
      </trkpt>
      <trkpt lat="42.9101" lon="0.24055">
        <ele>1654.94</ele>
        <time>2018-10-20T12:15:14Z</time>
      </trkpt>
      <trkpt lat="42.91" lon="0.24037">
        <ele>1655.88</ele>
        <time>2018-10-20T12:15:32Z</time>
      </trkpt>
      <trkpt lat="42.90985" lon="0.24024">
        <ele>1657.17</ele>
        <time>2018-10-20T12:15:53Z</time>
      </trkpt>
      <trkpt lat="42.90975" lon="0.24012">
        <ele>1657.88</ele>
        <time>2018-10-20T12:16:11Z</time>
      </trkpt>
      <trkpt lat="42.90964" lon="0.23999">
        <ele>1658.67</ele>
        <time>2018-10-20T12:16:30Z</time>
      </trkpt>
      <trkpt lat="42.90965" lon="0.24">
        <ele>1659.29</ele>
        <time>2018-10-20T12:16:55Z</time>
      </trkpt>
      <trkpt lat="42.90965" lon="0.24">
        <ele>1659.03</ele>
        <time>2018-10-20T12:17:00Z</time>
      </trkpt>
      <trkpt lat="42.90901" lon="0.23943">
        <ele>1662.87</ele>
        <time>2018-10-20T12:20:14Z</time>
      </trkpt>
      <trkpt lat="42.90894" lon="0.23938">
        <ele>1663.58</ele>
        <time>2018-10-20T12:20:30Z</time>
      </trkpt>
      <trkpt lat="42.90887" lon="0.23937">
        <ele>1664.98</ele>
        <time>2018-10-20T12:20:43Z</time>
      </trkpt>
      <trkpt lat="42.90878" lon="0.23938">
        <ele>1666.23</ele>
        <time>2018-10-20T12:20:59Z</time>
      </trkpt>
      <trkpt lat="42.90874" lon="0.23946">
        <ele>1666.08</ele>
        <time>2018-10-20T12:21:10Z</time>
      </trkpt>
      <trkpt lat="42.90871" lon="0.2396">
        <ele>1664.84</ele>
        <time>2018-10-20T12:21:21Z</time>
      </trkpt>
      <trkpt lat="42.90857" lon="0.23976">
        <ele>1664.11</ele>
        <time>2018-10-20T12:21:39Z</time>
      </trkpt>
      <trkpt lat="42.90849" lon="0.23988">
        <ele>1664.2</ele>
        <time>2018-10-20T12:21:50Z</time>
      </trkpt>
      <trkpt lat="42.90839" lon="0.24006">
        <ele>1664.87</ele>
        <time>2018-10-20T12:22:06Z</time>
      </trkpt>
      <trkpt lat="42.90833" lon="0.24019">
        <ele>1664.81</ele>
        <time>2018-10-20T12:22:24Z</time>
      </trkpt>
      <trkpt lat="42.9083" lon="0.24023">
        <ele>1665.49</ele>
        <time>2018-10-20T12:22:31Z</time>
      </trkpt>
      <trkpt lat="42.90829" lon="0.24026">
        <ele>1665.79</ele>
        <time>2018-10-20T12:22:33Z</time>
      </trkpt>
      <trkpt lat="42.90826" lon="0.24035">
        <ele>1665.94</ele>
        <time>2018-10-20T12:22:46Z</time>
      </trkpt>
      <trkpt lat="42.90824" lon="0.24038">
        <ele>1666.21</ele>
        <time>2018-10-20T12:22:50Z</time>
      </trkpt>
      <trkpt lat="42.90823" lon="0.2404">
        <ele>1666.38</ele>
        <time>2018-10-20T12:22:52Z</time>
      </trkpt>
      <trkpt lat="42.9081" lon="0.24043">
        <ele>1667.63</ele>
        <time>2018-10-20T12:23:08Z</time>
      </trkpt>
      <trkpt lat="42.9081" lon="0.24037">
        <ele>1668.01</ele>
        <time>2018-10-20T12:23:22Z</time>
      </trkpt>
      <trkpt lat="42.90808" lon="0.24022">
        <ele>1670.59</ele>
        <time>2018-10-20T12:23:39Z</time>
      </trkpt>
      <trkpt lat="42.90805" lon="0.24007">
        <ele>1673.23</ele>
        <time>2018-10-20T12:23:58Z</time>
      </trkpt>
      <trkpt lat="42.90804" lon="0.23988">
        <ele>1675.75</ele>
        <time>2018-10-20T12:24:16Z</time>
      </trkpt>
      <trkpt lat="42.90801" lon="0.23977">
        <ele>1677.99</ele>
        <time>2018-10-20T12:24:32Z</time>
      </trkpt>
      <trkpt lat="42.90797" lon="0.23963">
        <ele>1679.85</ele>
        <time>2018-10-20T12:24:49Z</time>
      </trkpt>
      <trkpt lat="42.908" lon="0.23952">
        <ele>1681.65</ele>
        <time>2018-10-20T12:25:04Z</time>
      </trkpt>
      <trkpt lat="42.90793" lon="0.23933">
        <ele>1684.19</ele>
        <time>2018-10-20T12:25:23Z</time>
      </trkpt>
      <trkpt lat="42.90792" lon="0.23916">
        <ele>1686.6</ele>
        <time>2018-10-20T12:25:42Z</time>
      </trkpt>
      <trkpt lat="42.90789" lon="0.239">
        <ele>1689.34</ele>
        <time>2018-10-20T12:26:02Z</time>
      </trkpt>
      <trkpt lat="42.90784" lon="0.23884">
        <ele>1691.34</ele>
        <time>2018-10-20T12:26:19Z</time>
      </trkpt>
      <trkpt lat="42.90783" lon="0.23867">
        <ele>1693.9</ele>
        <time>2018-10-20T12:26:37Z</time>
      </trkpt>
      <trkpt lat="42.90784" lon="0.23852">
        <ele>1697.07</ele>
        <time>2018-10-20T12:26:55Z</time>
      </trkpt>
      <trkpt lat="42.90782" lon="0.23841">
        <ele>1700.08</ele>
        <time>2018-10-20T12:27:12Z</time>
      </trkpt>
      <trkpt lat="42.90777" lon="0.23838">
        <ele>1701.8</ele>
        <time>2018-10-20T12:27:32Z</time>
      </trkpt>
      <trkpt lat="42.90771" lon="0.2383">
        <ele>1703.46</ele>
        <time>2018-10-20T12:27:55Z</time>
      </trkpt>
      <trkpt lat="42.90762" lon="0.23819">
        <ele>1706.51</ele>
        <time>2018-10-20T12:28:14Z</time>
      </trkpt>
      <trkpt lat="42.90759" lon="0.23802">
        <ele>1709.16</ele>
        <time>2018-10-20T12:28:31Z</time>
      </trkpt>
      <trkpt lat="42.90752" lon="0.23788">
        <ele>1711.09</ele>
        <time>2018-10-20T12:28:49Z</time>
      </trkpt>
      <trkpt lat="42.90746" lon="0.23778">
        <ele>1712.26</ele>
        <time>2018-10-20T12:29:03Z</time>
      </trkpt>
      <trkpt lat="42.90746" lon="0.23763">
        <ele>1715.27</ele>
        <time>2018-10-20T12:29:20Z</time>
      </trkpt>
      <trkpt lat="42.90746" lon="0.23755">
        <ele>1717.16</ele>
        <time>2018-10-20T12:29:38Z</time>
      </trkpt>
      <trkpt lat="42.90745" lon="0.23741">
        <ele>1718.52</ele>
        <time>2018-10-20T12:29:56Z</time>
      </trkpt>
      <trkpt lat="42.90738" lon="0.2373">
        <ele>1719.99</ele>
        <time>2018-10-20T12:30:12Z</time>
      </trkpt>
      <trkpt lat="42.90729" lon="0.23721">
        <ele>1721.92</ele>
        <time>2018-10-20T12:30:27Z</time>
      </trkpt>
      <trkpt lat="42.90724" lon="0.23717">
        <ele>1722.75</ele>
        <time>2018-10-20T12:30:34Z</time>
      </trkpt>
      <trkpt lat="42.90723" lon="0.23714">
        <ele>1723</ele>
        <time>2018-10-20T12:30:38Z</time>
      </trkpt>
      <trkpt lat="42.9072" lon="0.23696">
        <ele>1723.24</ele>
        <time>2018-10-20T12:30:54Z</time>
      </trkpt>
      <trkpt lat="42.90713" lon="0.23676">
        <ele>1723.37</ele>
        <time>2018-10-20T12:31:11Z</time>
      </trkpt>
      <trkpt lat="42.90707" lon="0.23654">
        <ele>1723.81</ele>
        <time>2018-10-20T12:31:28Z</time>
      </trkpt>
      <trkpt lat="42.90701" lon="0.23638">
        <ele>1724.48</ele>
        <time>2018-10-20T12:31:43Z</time>
      </trkpt>
      <trkpt lat="42.90693" lon="0.23624">
        <ele>1724.92</ele>
        <time>2018-10-20T12:31:58Z</time>
      </trkpt>
      <trkpt lat="42.90692" lon="0.23621">
        <ele>1724.94</ele>
        <time>2018-10-20T12:32:00Z</time>
      </trkpt>
      <trkpt lat="42.9068" lon="0.23608">
        <ele>1725.26</ele>
        <time>2018-10-20T12:32:18Z</time>
      </trkpt>
      <trkpt lat="42.90672" lon="0.23606">
        <ele>1726.68</ele>
        <time>2018-10-20T12:32:36Z</time>
      </trkpt>
      <trkpt lat="42.90672" lon="0.23601">
        <ele>1726.46</ele>
        <time>2018-10-20T12:32:51Z</time>
      </trkpt>
      <trkpt lat="42.90669" lon="0.23595">
        <ele>1726.52</ele>
        <time>2018-10-20T12:32:58Z</time>
      </trkpt>
      <trkpt lat="42.90667" lon="0.23584">
        <ele>1726.57</ele>
        <time>2018-10-20T12:33:07Z</time>
      </trkpt>
      <trkpt lat="42.90661" lon="0.23572">
        <ele>1728.3</ele>
        <time>2018-10-20T12:33:23Z</time>
      </trkpt>
      <trkpt lat="42.90653" lon="0.23557">
        <ele>1730.06</ele>
        <time>2018-10-20T12:33:41Z</time>
      </trkpt>
      <trkpt lat="42.90643" lon="0.23554">
        <ele>1730.63</ele>
        <time>2018-10-20T12:33:55Z</time>
      </trkpt>
      <trkpt lat="42.90633" lon="0.23555">
        <ele>1731.85</ele>
        <time>2018-10-20T12:34:08Z</time>
      </trkpt>
      <trkpt lat="42.90616" lon="0.23551">
        <ele>1733.46</ele>
        <time>2018-10-20T12:34:28Z</time>
      </trkpt>
      <trkpt lat="42.90604" lon="0.23545">
        <ele>1735.55</ele>
        <time>2018-10-20T12:34:45Z</time>
      </trkpt>
      <trkpt lat="42.90586" lon="0.2354">
        <ele>1737</ele>
        <time>2018-10-20T12:35:03Z</time>
      </trkpt>
      <trkpt lat="42.90574" lon="0.23534">
        <ele>1739.02</ele>
        <time>2018-10-20T12:35:22Z</time>
      </trkpt>
      <trkpt lat="42.90566" lon="0.23531">
        <ele>1741.81</ele>
        <time>2018-10-20T12:35:43Z</time>
      </trkpt>
      <trkpt lat="42.90552" lon="0.23534">
        <ele>1743.11</ele>
        <time>2018-10-20T12:36:02Z</time>
      </trkpt>
      <trkpt lat="42.90543" lon="0.2354">
        <ele>1744.72</ele>
        <time>2018-10-20T12:36:18Z</time>
      </trkpt>
      <trkpt lat="42.90542" lon="0.2354">
        <ele>1744.81</ele>
        <time>2018-10-20T12:36:19Z</time>
      </trkpt>
      <trkpt lat="42.90526" lon="0.23553">
        <ele>1745.1</ele>
        <time>2018-10-20T12:36:38Z</time>
      </trkpt>
      <trkpt lat="42.90524" lon="0.23553">
        <ele>1745.3</ele>
        <time>2018-10-20T12:36:40Z</time>
      </trkpt>
      <trkpt lat="42.90509" lon="0.23557">
        <ele>1747.94</ele>
        <time>2018-10-20T12:37:00Z</time>
      </trkpt>
      <trkpt lat="42.90496" lon="0.23561">
        <ele>1750.44</ele>
        <time>2018-10-20T12:37:20Z</time>
      </trkpt>
      <trkpt lat="42.90488" lon="0.23563">
        <ele>1752.36</ele>
        <time>2018-10-20T12:37:39Z</time>
      </trkpt>
      <trkpt lat="42.90481" lon="0.23572">
        <ele>1755.43</ele>
        <time>2018-10-20T12:38:00Z</time>
      </trkpt>
      <trkpt lat="42.90478" lon="0.23577">
        <ele>1758.41</ele>
        <time>2018-10-20T12:38:18Z</time>
      </trkpt>
      <trkpt lat="42.90472" lon="0.23576">
        <ele>1761.15</ele>
        <time>2018-10-20T12:38:34Z</time>
      </trkpt>
      <trkpt lat="42.90461" lon="0.23571">
        <ele>1764.18</ele>
        <time>2018-10-20T12:38:55Z</time>
      </trkpt>
      <trkpt lat="42.90452" lon="0.23561">
        <ele>1765.55</ele>
        <time>2018-10-20T12:39:14Z</time>
      </trkpt>
      <trkpt lat="42.90439" lon="0.23557">
        <ele>1766.03</ele>
        <time>2018-10-20T12:39:29Z</time>
      </trkpt>
      <trkpt lat="42.90427" lon="0.23558">
        <ele>1767.05</ele>
        <time>2018-10-20T12:39:47Z</time>
      </trkpt>
      <trkpt lat="42.90417" lon="0.2356">
        <ele>1768.81</ele>
        <time>2018-10-20T12:40:04Z</time>
      </trkpt>
      <trkpt lat="42.90405" lon="0.23566">
        <ele>1770.52</ele>
        <time>2018-10-20T12:40:24Z</time>
      </trkpt>
      <trkpt lat="42.90398" lon="0.23566">
        <ele>1771.44</ele>
        <time>2018-10-20T12:40:40Z</time>
      </trkpt>
      <trkpt lat="42.90389" lon="0.23573">
        <ele>1773.37</ele>
        <time>2018-10-20T12:40:56Z</time>
      </trkpt>
      <trkpt lat="42.90381" lon="0.23579">
        <ele>1775.18</ele>
        <time>2018-10-20T12:41:15Z</time>
      </trkpt>
      <trkpt lat="42.90372" lon="0.23587">
        <ele>1776.81</ele>
        <time>2018-10-20T12:41:34Z</time>
      </trkpt>
      <trkpt lat="42.90364" lon="0.23587">
        <ele>1779.48</ele>
        <time>2018-10-20T12:41:56Z</time>
      </trkpt>
      <trkpt lat="42.90353" lon="0.23579">
        <ele>1781.98</ele>
        <time>2018-10-20T12:42:18Z</time>
      </trkpt>
      <trkpt lat="42.90354" lon="0.2357">
        <ele>1785.23</ele>
        <time>2018-10-20T12:42:34Z</time>
      </trkpt>
      <trkpt lat="42.90347" lon="0.23567">
        <ele>1788.33</ele>
        <time>2018-10-20T12:42:50Z</time>
      </trkpt>
      <trkpt lat="42.90338" lon="0.2356">
        <ele>1791.43</ele>
        <time>2018-10-20T12:43:07Z</time>
      </trkpt>
      <trkpt lat="42.90343" lon="0.23552">
        <ele>1794.48</ele>
        <time>2018-10-20T12:43:24Z</time>
      </trkpt>
      <trkpt lat="42.90342" lon="0.23551">
        <ele>1795.39</ele>
        <time>2018-10-20T12:43:29Z</time>
      </trkpt>
      <trkpt lat="42.90306" lon="0.23509">
        <ele>1816.75</ele>
        <time>2018-10-20T12:46:43Z</time>
      </trkpt>
      <trkpt lat="42.90296" lon="0.23501">
        <ele>1818.55</ele>
        <time>2018-10-20T12:47:01Z</time>
      </trkpt>
      <trkpt lat="42.9029" lon="0.23501">
        <ele>1820.67</ele>
        <time>2018-10-20T12:47:20Z</time>
      </trkpt>
      <trkpt lat="42.90283" lon="0.23506">
        <ele>1822.71</ele>
        <time>2018-10-20T12:47:37Z</time>
      </trkpt>
      <trkpt lat="42.90272" lon="0.235">
        <ele>1823.84</ele>
        <time>2018-10-20T12:47:56Z</time>
      </trkpt>
      <trkpt lat="42.90269" lon="0.235">
        <ele>1824.05</ele>
        <time>2018-10-20T12:48:01Z</time>
      </trkpt>
      <trkpt lat="42.90263" lon="0.23505">
        <ele>1824.51</ele>
        <time>2018-10-20T12:48:17Z</time>
      </trkpt>
      <trkpt lat="42.90258" lon="0.23501">
        <ele>1824.79</ele>
        <time>2018-10-20T12:48:37Z</time>
      </trkpt>
      <trkpt lat="42.90255" lon="0.23502">
        <ele>1825.04</ele>
        <time>2018-10-20T12:48:40Z</time>
      </trkpt>
      <trkpt lat="42.90246" lon="0.23501">
        <ele>1825.73</ele>
        <time>2018-10-20T12:48:48Z</time>
      </trkpt>
      <trkpt lat="42.90235" lon="0.23495">
        <ele>1828.33</ele>
        <time>2018-10-20T12:49:04Z</time>
      </trkpt>
      <trkpt lat="42.90227" lon="0.23489">
        <ele>1831.16</ele>
        <time>2018-10-20T12:49:23Z</time>
      </trkpt>
      <trkpt lat="42.90212" lon="0.23495">
        <ele>1834.21</ele>
        <time>2018-10-20T12:49:44Z</time>
      </trkpt>
      <trkpt lat="42.90203" lon="0.23492">
        <ele>1836.6</ele>
        <time>2018-10-20T12:50:03Z</time>
      </trkpt>
      <trkpt lat="42.90195" lon="0.235">
        <ele>1839.22</ele>
        <time>2018-10-20T12:50:24Z</time>
      </trkpt>
      <trkpt lat="42.90186" lon="0.23502">
        <ele>1840.19</ele>
        <time>2018-10-20T12:50:40Z</time>
      </trkpt>
      <trkpt lat="42.9018" lon="0.23499">
        <ele>1840.97</ele>
        <time>2018-10-20T12:50:54Z</time>
      </trkpt>
      <trkpt lat="42.9018" lon="0.235">
        <ele>1840.97</ele>
        <time>2018-10-20T12:50:55Z</time>
      </trkpt>
      <trkpt lat="42.90169" lon="0.23504">
        <ele>1840.98</ele>
        <time>2018-10-20T12:51:10Z</time>
      </trkpt>
      <trkpt lat="42.90159" lon="0.23505">
        <ele>1841.98</ele>
        <time>2018-10-20T12:51:24Z</time>
      </trkpt>
      <trkpt lat="42.90144" lon="0.23513">
        <ele>1845.14</ele>
        <time>2018-10-20T12:51:39Z</time>
      </trkpt>
      <trkpt lat="42.9013" lon="0.23516">
        <ele>1848.13</ele>
        <time>2018-10-20T12:51:59Z</time>
      </trkpt>
      <trkpt lat="42.90123" lon="0.23524">
        <ele>1849.19</ele>
        <time>2018-10-20T12:52:13Z</time>
      </trkpt>
      <trkpt lat="42.90116" lon="0.23536">
        <ele>1850.13</ele>
        <time>2018-10-20T12:52:30Z</time>
      </trkpt>
      <trkpt lat="42.9011" lon="0.23538">
        <ele>1850.62</ele>
        <time>2018-10-20T12:52:37Z</time>
      </trkpt>
      <trkpt lat="42.90101" lon="0.23546">
        <ele>1851.66</ele>
        <time>2018-10-20T12:52:54Z</time>
      </trkpt>
      <trkpt lat="42.90087" lon="0.23544">
        <ele>1852.49</ele>
        <time>2018-10-20T12:53:10Z</time>
      </trkpt>
      <trkpt lat="42.90079" lon="0.2354">
        <ele>1853.73</ele>
        <time>2018-10-20T12:53:25Z</time>
      </trkpt>
      <trkpt lat="42.90069" lon="0.23541">
        <ele>1855.47</ele>
        <time>2018-10-20T12:53:43Z</time>
      </trkpt>
      <trkpt lat="42.90058" lon="0.23541">
        <ele>1858.08</ele>
        <time>2018-10-20T12:54:03Z</time>
      </trkpt>
      <trkpt lat="42.90051" lon="0.23538">
        <ele>1861.06</ele>
        <time>2018-10-20T12:54:25Z</time>
      </trkpt>
      <trkpt lat="42.9004" lon="0.23534">
        <ele>1862.59</ele>
        <time>2018-10-20T12:54:43Z</time>
      </trkpt>
      <trkpt lat="42.90034" lon="0.23534">
        <ele>1863.88</ele>
        <time>2018-10-20T12:55:00Z</time>
      </trkpt>
      <trkpt lat="42.90029" lon="0.23533">
        <ele>1865.77</ele>
        <time>2018-10-20T12:55:16Z</time>
      </trkpt>
      <trkpt lat="42.90023" lon="0.23527">
        <ele>1868.74</ele>
        <time>2018-10-20T12:55:34Z</time>
      </trkpt>
      <trkpt lat="42.90017" lon="0.23527">
        <ele>1869.61</ele>
        <time>2018-10-20T12:55:54Z</time>
      </trkpt>
      <trkpt lat="42.90005" lon="0.23524">
        <ele>1871.43</ele>
        <time>2018-10-20T12:56:10Z</time>
      </trkpt>
      <trkpt lat="42.89999" lon="0.23521">
        <ele>1873.94</ele>
        <time>2018-10-20T12:56:25Z</time>
      </trkpt>
      <trkpt lat="42.8999" lon="0.23522">
        <ele>1876.43</ele>
        <time>2018-10-20T12:56:40Z</time>
      </trkpt>
      <trkpt lat="42.89979" lon="0.23521">
        <ele>1878.89</ele>
        <time>2018-10-20T12:56:57Z</time>
      </trkpt>
      <trkpt lat="42.89969" lon="0.2352">
        <ele>1881.3</ele>
        <time>2018-10-20T12:57:17Z</time>
      </trkpt>
      <trkpt lat="42.8996" lon="0.23517">
        <ele>1883.41</ele>
        <time>2018-10-20T12:57:38Z</time>
      </trkpt>
      <trkpt lat="42.89957" lon="0.23517">
        <ele>1885.15</ele>
        <time>2018-10-20T12:57:54Z</time>
      </trkpt>
      <trkpt lat="42.89945" lon="0.2351">
        <ele>1888.28</ele>
        <time>2018-10-20T12:58:13Z</time>
      </trkpt>
      <trkpt lat="42.89936" lon="0.23507">
        <ele>1890.37</ele>
        <time>2018-10-20T12:58:32Z</time>
      </trkpt>
      <trkpt lat="42.89926" lon="0.23505">
        <ele>1893.51</ele>
        <time>2018-10-20T12:58:52Z</time>
      </trkpt>
      <trkpt lat="42.89917" lon="0.23508">
        <ele>1896.39</ele>
        <time>2018-10-20T12:59:11Z</time>
      </trkpt>
      <trkpt lat="42.89911" lon="0.23507">
        <ele>1898.31</ele>
        <time>2018-10-20T12:59:26Z</time>
      </trkpt>
      <trkpt lat="42.89875" lon="0.23492">
        <ele>1906.95</ele>
        <time>2018-10-20T13:00:55Z</time>
      </trkpt>
      <trkpt lat="42.89868" lon="0.23486">
        <ele>1907.24</ele>
        <time>2018-10-20T13:01:09Z</time>
      </trkpt>
      <trkpt lat="42.89861" lon="0.23483">
        <ele>1905.74</ele>
        <time>2018-10-20T13:01:25Z</time>
      </trkpt>
      <trkpt lat="42.89858" lon="0.23482">
        <ele>1905.3</ele>
        <time>2018-10-20T13:01:28Z</time>
      </trkpt>
      <trkpt lat="42.89845" lon="0.23475">
        <ele>1904.45</ele>
        <time>2018-10-20T13:01:44Z</time>
      </trkpt>
      <trkpt lat="42.89841" lon="0.23476">
        <ele>1905.95</ele>
        <time>2018-10-20T13:01:59Z</time>
      </trkpt>
      <trkpt lat="42.8984" lon="0.23474">
        <ele>1906.17</ele>
        <time>2018-10-20T13:02:21Z</time>
      </trkpt>
      <trkpt lat="42.90121" lon="0.23525">
        <ele>1850.96</ele>
        <time>2018-10-20T13:42:06Z</time>
      </trkpt>
      <trkpt lat="42.90128" lon="0.23516">
        <ele>1850.64</ele>
        <time>2018-10-20T13:42:20Z</time>
      </trkpt>
      <trkpt lat="42.9014" lon="0.23514">
        <ele>1848.46</ele>
        <time>2018-10-20T13:42:40Z</time>
      </trkpt>
      <trkpt lat="42.90141" lon="0.23509">
        <ele>1847.62</ele>
        <time>2018-10-20T13:43:01Z</time>
      </trkpt>
      <trkpt lat="42.9014" lon="0.23508">
        <ele>1847.6</ele>
        <time>2018-10-20T13:43:08Z</time>
      </trkpt>
      <trkpt lat="42.90148" lon="0.23507">
        <ele>1846.86</ele>
        <time>2018-10-20T13:43:31Z</time>
      </trkpt>
      <trkpt lat="42.9015" lon="0.23506">
        <ele>1846.64</ele>
        <time>2018-10-20T13:43:32Z</time>
      </trkpt>
      <trkpt lat="42.90159" lon="0.23504">
        <ele>1845.42</ele>
        <time>2018-10-20T13:43:37Z</time>
      </trkpt>
      <trkpt lat="42.90164" lon="0.23501">
        <ele>1843.63</ele>
        <time>2018-10-20T13:43:43Z</time>
      </trkpt>
      <trkpt lat="42.90172" lon="0.23499">
        <ele>1842.63</ele>
        <time>2018-10-20T13:44:00Z</time>
      </trkpt>
      <trkpt lat="42.90173" lon="0.23499">
        <ele>1842.63</ele>
        <time>2018-10-20T13:44:01Z</time>
      </trkpt>
      <trkpt lat="42.90182" lon="0.23503">
        <ele>1842.07</ele>
        <time>2018-10-20T13:44:13Z</time>
      </trkpt>
      <trkpt lat="42.90194" lon="0.23499">
        <ele>1841.19</ele>
        <time>2018-10-20T13:44:48Z</time>
      </trkpt>
      <trkpt lat="42.90198" lon="0.235">
        <ele>1840.69</ele>
        <time>2018-10-20T13:44:50Z</time>
      </trkpt>
      <trkpt lat="42.90217" lon="0.23493">
        <ele>1837.51</ele>
        <time>2018-10-20T13:45:01Z</time>
      </trkpt>
      <trkpt lat="42.90227" lon="0.23493">
        <ele>1834.47</ele>
        <time>2018-10-20T13:45:14Z</time>
      </trkpt>
      <trkpt lat="42.90227" lon="0.23494">
        <ele>1833.49</ele>
        <time>2018-10-20T13:45:16Z</time>
      </trkpt>
      <trkpt lat="42.90361" lon="0.23499">
        <ele>1810.51</ele>
        <time>2018-10-20T13:49:03Z</time>
      </trkpt>
      <trkpt lat="42.9037" lon="0.23493">
        <ele>1808.92</ele>
        <time>2018-10-20T13:49:18Z</time>
      </trkpt>
      <trkpt lat="42.90391" lon="0.23494">
        <ele>1803.75</ele>
        <time>2018-10-20T13:50:05Z</time>
      </trkpt>
      <trkpt lat="42.90392" lon="0.23495">
        <ele>1802.75</ele>
        <time>2018-10-20T13:50:10Z</time>
      </trkpt>
      <trkpt lat="42.90513" lon="0.23458">
        <ele>1784</ele>
        <time>2018-10-20T13:55:32Z</time>
      </trkpt>
      <trkpt lat="42.90517" lon="0.23459">
        <ele>1783.97</ele>
        <time>2018-10-20T13:55:37Z</time>
      </trkpt>
      <trkpt lat="42.9054" lon="0.23452">
        <ele>1784.7</ele>
        <time>2018-10-20T13:56:16Z</time>
      </trkpt>
      <trkpt lat="42.90541" lon="0.23452">
        <ele>1784.71</ele>
        <time>2018-10-20T13:56:17Z</time>
      </trkpt>
      <trkpt lat="42.90554" lon="0.23448">
        <ele>1784.95</ele>
        <time>2018-10-20T13:56:33Z</time>
      </trkpt>
      <trkpt lat="42.90559" lon="0.23444">
        <ele>1784.98</ele>
        <time>2018-10-20T13:56:43Z</time>
      </trkpt>
      <trkpt lat="42.90599" lon="0.23424">
        <ele>1786.82</ele>
        <time>2018-10-20T13:57:42Z</time>
      </trkpt>
      <trkpt lat="42.90609" lon="0.23416">
        <ele>1789.02</ele>
        <time>2018-10-20T13:57:59Z</time>
      </trkpt>
      <trkpt lat="42.9062" lon="0.23413">
        <ele>1790.85</ele>
        <time>2018-10-20T13:58:15Z</time>
      </trkpt>
      <trkpt lat="42.90632" lon="0.23403">
        <ele>1792.63</ele>
        <time>2018-10-20T13:58:32Z</time>
      </trkpt>
      <trkpt lat="42.90643" lon="0.23395">
        <ele>1794.63</ele>
        <time>2018-10-20T13:58:50Z</time>
      </trkpt>
      <trkpt lat="42.90654" lon="0.23391">
        <ele>1795.15</ele>
        <time>2018-10-20T13:59:08Z</time>
      </trkpt>
      <trkpt lat="42.90657" lon="0.23392">
        <ele>1795.38</ele>
        <time>2018-10-20T13:59:13Z</time>
      </trkpt>
      <trkpt lat="42.90791" lon="0.23154">
        <ele>1865.74</ele>
        <time>2018-10-20T14:12:10Z</time>
      </trkpt>
      <trkpt lat="42.90792" lon="0.23139">
        <ele>1868.79</ele>
        <time>2018-10-20T14:12:28Z</time>
      </trkpt>
      <trkpt lat="42.90792" lon="0.23134">
        <ele>1869.85</ele>
        <time>2018-10-20T14:12:34Z</time>
      </trkpt>
      <trkpt lat="42.90818" lon="0.23089">
        <ele>1881.47</ele>
        <time>2018-10-20T14:13:36Z</time>
      </trkpt>
      <trkpt lat="42.9083" lon="0.2308">
        <ele>1882.81</ele>
        <time>2018-10-20T14:13:54Z</time>
      </trkpt>
      <trkpt lat="42.90847" lon="0.23066">
        <ele>1884</ele>
        <time>2018-10-20T14:14:13Z</time>
      </trkpt>
      <trkpt lat="42.90864" lon="0.23053">
        <ele>1885.26</ele>
        <time>2018-10-20T14:14:31Z</time>
      </trkpt>
      <trkpt lat="42.90876" lon="0.23042">
        <ele>1886.14</ele>
        <time>2018-10-20T14:14:48Z</time>
      </trkpt>
      <trkpt lat="42.90878" lon="0.23032">
        <ele>1887.04</ele>
        <time>2018-10-20T14:15:00Z</time>
      </trkpt>
      <trkpt lat="42.90899" lon="0.23004">
        <ele>1887.84</ele>
        <time>2018-10-20T14:15:43Z</time>
      </trkpt>
      <trkpt lat="42.90899" lon="0.23003">
        <ele>1887.85</ele>
        <time>2018-10-20T14:15:44Z</time>
      </trkpt>
      <trkpt lat="42.90913" lon="0.22999">
        <ele>1888.41</ele>
        <time>2018-10-20T14:16:01Z</time>
      </trkpt>
      <trkpt lat="42.9092" lon="0.23">
        <ele>1889.25</ele>
        <time>2018-10-20T14:16:13Z</time>
      </trkpt>
      <trkpt lat="42.90956" lon="0.23042">
        <ele>1892.49</ele>
        <time>2018-10-20T14:18:03Z</time>
      </trkpt>
      <trkpt lat="42.90959" lon="0.23044">
        <ele>1893.51</ele>
        <time>2018-10-20T14:18:10Z</time>
      </trkpt>
      <trkpt lat="42.90974" lon="0.23087">
        <ele>1893.26</ele>
        <time>2018-10-20T14:19:48Z</time>
      </trkpt>
      <trkpt lat="42.90981" lon="0.23107">
        <ele>1893.58</ele>
        <time>2018-10-20T14:20:02Z</time>
      </trkpt>
      <trkpt lat="42.90985" lon="0.23122">
        <ele>1894.13</ele>
        <time>2018-10-20T14:20:14Z</time>
      </trkpt>
      <trkpt lat="42.90993" lon="0.23137">
        <ele>1894.88</ele>
        <time>2018-10-20T14:20:29Z</time>
      </trkpt>
      <trkpt lat="42.90999" lon="0.23147">
        <ele>1895.16</ele>
        <time>2018-10-20T14:20:43Z</time>
      </trkpt>
      <trkpt lat="42.91014" lon="0.23177">
        <ele>1896.93</ele>
        <time>2018-10-20T14:21:54Z</time>
      </trkpt>
      <trkpt lat="42.91027" lon="0.23186">
        <ele>1897.09</ele>
        <time>2018-10-20T14:22:07Z</time>
      </trkpt>
      <trkpt lat="42.9104" lon="0.23198">
        <ele>1897.59</ele>
        <time>2018-10-20T14:22:22Z</time>
      </trkpt>
      <trkpt lat="42.91044" lon="0.23203">
        <ele>1896.97</ele>
        <time>2018-10-20T14:22:30Z</time>
      </trkpt>
      <trkpt lat="42.91112" lon="0.23255">
        <ele>1867.35</ele>
        <time>2018-10-20T14:27:35Z</time>
      </trkpt>
      <trkpt lat="42.9112" lon="0.23268">
        <ele>1864.17</ele>
        <time>2018-10-20T14:27:47Z</time>
      </trkpt>
      <trkpt lat="42.91132" lon="0.23281">
        <ele>1861.1</ele>
        <time>2018-10-20T14:28:03Z</time>
      </trkpt>
      <trkpt lat="42.91138" lon="0.23294">
        <ele>1859.28</ele>
        <time>2018-10-20T14:28:17Z</time>
      </trkpt>
      <trkpt lat="42.91138" lon="0.23295">
        <ele>1858.6</ele>
        <time>2018-10-20T14:28:21Z</time>
      </trkpt>
      <trkpt lat="42.91196" lon="0.23374">
        <ele>1843.18</ele>
        <time>2018-10-20T14:30:08Z</time>
      </trkpt>
      <trkpt lat="42.91206" lon="0.23387">
        <ele>1839.96</ele>
        <time>2018-10-20T14:30:24Z</time>
      </trkpt>
      <trkpt lat="42.91208" lon="0.23389">
        <ele>1839</ele>
        <time>2018-10-20T14:30:28Z</time>
      </trkpt>
      <trkpt lat="42.9128" lon="0.2344">
        <ele>1823.87</ele>
        <time>2018-10-20T14:32:21Z</time>
      </trkpt>
      <trkpt lat="42.91288" lon="0.23447">
        <ele>1822.13</ele>
        <time>2018-10-20T14:32:35Z</time>
      </trkpt>
      <trkpt lat="42.91299" lon="0.23458">
        <ele>1819.93</ele>
        <time>2018-10-20T14:32:51Z</time>
      </trkpt>
      <trkpt lat="42.91312" lon="0.23465">
        <ele>1817.54</ele>
        <time>2018-10-20T14:33:08Z</time>
      </trkpt>
      <trkpt lat="42.91314" lon="0.23468">
        <ele>1816.59</ele>
        <time>2018-10-20T14:33:14Z</time>
      </trkpt>
      <trkpt lat="42.91329" lon="0.23483">
        <ele>1814.31</ele>
        <time>2018-10-20T14:34:04Z</time>
      </trkpt>
      <trkpt lat="42.91332" lon="0.23486">
        <ele>1814.07</ele>
        <time>2018-10-20T14:34:07Z</time>
      </trkpt>
      <trkpt lat="42.91344" lon="0.23498">
        <ele>1810.77</ele>
        <time>2018-10-20T14:34:22Z</time>
      </trkpt>
      <trkpt lat="42.91353" lon="0.23503">
        <ele>1807.57</ele>
        <time>2018-10-20T14:34:34Z</time>
      </trkpt>
      <trkpt lat="42.91359" lon="0.23508">
        <ele>1804.55</ele>
        <time>2018-10-20T14:34:47Z</time>
      </trkpt>
      <trkpt lat="42.91364" lon="0.23507">
        <ele>1801.89</ele>
        <time>2018-10-20T14:34:57Z</time>
      </trkpt>
      <trkpt lat="42.91481" lon="0.23539">
        <ele>1755.63</ele>
        <time>2018-10-20T14:39:19Z</time>
      </trkpt>
      <trkpt lat="42.91489" lon="0.23542">
        <ele>1752.75</ele>
        <time>2018-10-20T14:39:28Z</time>
      </trkpt>
      <trkpt lat="42.91501" lon="0.23544">
        <ele>1749.36</ele>
        <time>2018-10-20T14:39:39Z</time>
      </trkpt>
      <trkpt lat="42.9151" lon="0.23551">
        <ele>1746.38</ele>
        <time>2018-10-20T14:39:50Z</time>
      </trkpt>
      <trkpt lat="42.91517" lon="0.23553">
        <ele>1745.03</ele>
        <time>2018-10-20T14:39:57Z</time>
      </trkpt>
      <trkpt lat="42.91524" lon="0.23553">
        <ele>1743.18</ele>
        <time>2018-10-20T14:40:04Z</time>
      </trkpt>
      <trkpt lat="42.91537" lon="0.23557">
        <ele>1739.89</ele>
        <time>2018-10-20T14:40:19Z</time>
      </trkpt>
      <trkpt lat="42.91541" lon="0.23557">
        <ele>1738.75</ele>
        <time>2018-10-20T14:40:24Z</time>
      </trkpt>
      <trkpt lat="42.91559" lon="0.23557">
        <ele>1735.72</ele>
        <time>2018-10-20T14:40:39Z</time>
      </trkpt>
      <trkpt lat="42.91572" lon="0.23557">
        <ele>1734.23</ele>
        <time>2018-10-20T14:40:50Z</time>
      </trkpt>
      <trkpt lat="42.91582" lon="0.23559">
        <ele>1731.91</ele>
        <time>2018-10-20T14:41:03Z</time>
      </trkpt>
      <trkpt lat="42.91592" lon="0.23563">
        <ele>1729.99</ele>
        <time>2018-10-20T14:41:16Z</time>
      </trkpt>
      <trkpt lat="42.91594" lon="0.23562">
        <ele>1729.52</ele>
        <time>2018-10-20T14:41:22Z</time>
      </trkpt>
      <trkpt lat="42.9161" lon="0.23564">
        <ele>1728.86</ele>
        <time>2018-10-20T14:41:38Z</time>
      </trkpt>
      <trkpt lat="42.91623" lon="0.23571">
        <ele>1727.67</ele>
        <time>2018-10-20T14:41:53Z</time>
      </trkpt>
      <trkpt lat="42.91632" lon="0.23581">
        <ele>1727.26</ele>
        <time>2018-10-20T14:42:08Z</time>
      </trkpt>
      <trkpt lat="42.91632" lon="0.23582">
        <ele>1727.25</ele>
        <time>2018-10-20T14:42:09Z</time>
      </trkpt>
      <trkpt lat="42.91648" lon="0.23613">
        <ele>1728.04</ele>
        <time>2018-10-20T14:50:03Z</time>
      </trkpt>
      <trkpt lat="42.9165" lon="0.23615">
        <ele>1728.08</ele>
        <time>2018-10-20T14:50:05Z</time>
      </trkpt>
      <trkpt lat="42.91661" lon="0.23637">
        <ele>1728.14</ele>
        <time>2018-10-20T14:50:21Z</time>
      </trkpt>
      <trkpt lat="42.91662" lon="0.23638">
        <ele>1727.99</ele>
        <time>2018-10-20T14:50:24Z</time>
      </trkpt>
      <trkpt lat="42.91664" lon="0.23642">
        <ele>1727.83</ele>
        <time>2018-10-20T14:50:27Z</time>
      </trkpt>
      <trkpt lat="42.91667" lon="0.23652">
        <ele>1727.23</ele>
        <time>2018-10-20T14:50:33Z</time>
      </trkpt>
      <trkpt lat="42.9167" lon="0.23664">
        <ele>1726.7</ele>
        <time>2018-10-20T14:50:40Z</time>
      </trkpt>
      <trkpt lat="42.91679" lon="0.23684">
        <ele>1726.12</ele>
        <time>2018-10-20T14:50:53Z</time>
      </trkpt>
      <trkpt lat="42.91681" lon="0.23689">
        <ele>1725.97</ele>
        <time>2018-10-20T14:50:56Z</time>
      </trkpt>
      <trkpt lat="42.91683" lon="0.23692">
        <ele>1725.89</ele>
        <time>2018-10-20T14:50:58Z</time>
      </trkpt>
      <trkpt lat="42.91686" lon="0.23699">
        <ele>1725.58</ele>
        <time>2018-10-20T14:51:03Z</time>
      </trkpt>
      <trkpt lat="42.9169" lon="0.2371">
        <ele>1724.86</ele>
        <time>2018-10-20T14:51:11Z</time>
      </trkpt>
      <trkpt lat="42.91692" lon="0.23714">
        <ele>1724.51</ele>
        <time>2018-10-20T14:51:14Z</time>
      </trkpt>
      <trkpt lat="42.91698" lon="0.23725">
        <ele>1723.32</ele>
        <time>2018-10-20T14:51:22Z</time>
      </trkpt>
      <trkpt lat="42.917" lon="0.23731">
        <ele>1722.34</ele>
        <time>2018-10-20T14:51:26Z</time>
      </trkpt>
      <trkpt lat="42.91703" lon="0.23737">
        <ele>1720.84</ele>
        <time>2018-10-20T14:51:31Z</time>
      </trkpt>
      <trkpt lat="42.91704" lon="0.2374">
        <ele>1720.25</ele>
        <time>2018-10-20T14:51:33Z</time>
      </trkpt>
      <trkpt lat="42.91706" lon="0.23741">
        <ele>1719.71</ele>
        <time>2018-10-20T14:51:35Z</time>
      </trkpt>
      <trkpt lat="42.91708" lon="0.23744">
        <ele>1718.82</ele>
        <time>2018-10-20T14:51:38Z</time>
      </trkpt>
      <trkpt lat="42.91712" lon="0.2375">
        <ele>1717.27</ele>
        <time>2018-10-20T14:51:44Z</time>
      </trkpt>
      <trkpt lat="42.91714" lon="0.23754">
        <ele>1716.48</ele>
        <time>2018-10-20T14:51:47Z</time>
      </trkpt>
      <trkpt lat="42.91719" lon="0.23759">
        <ele>1714.09</ele>
        <time>2018-10-20T14:51:54Z</time>
      </trkpt>
      <trkpt lat="42.91728" lon="0.23774">
        <ele>1710.94</ele>
        <time>2018-10-20T14:52:05Z</time>
      </trkpt>
      <trkpt lat="42.91731" lon="0.23782">
        <ele>1709.7</ele>
        <time>2018-10-20T14:52:10Z</time>
      </trkpt>
      <trkpt lat="42.91735" lon="0.2379">
        <ele>1708.42</ele>
        <time>2018-10-20T14:52:15Z</time>
      </trkpt>
      <trkpt lat="42.91741" lon="0.23808">
        <ele>1704.89</ele>
        <time>2018-10-20T14:52:26Z</time>
      </trkpt>
      <trkpt lat="42.91745" lon="0.23815">
        <ele>1703.35</ele>
        <time>2018-10-20T14:52:31Z</time>
      </trkpt>
      <trkpt lat="42.91751" lon="0.23822">
        <ele>1701.66</ele>
        <time>2018-10-20T14:52:38Z</time>
      </trkpt>
      <trkpt lat="42.91754" lon="0.23828">
        <ele>1699.82</ele>
        <time>2018-10-20T14:52:43Z</time>
      </trkpt>
      <trkpt lat="42.91763" lon="0.23837">
        <ele>1696.56</ele>
        <time>2018-10-20T14:52:53Z</time>
      </trkpt>
      <trkpt lat="42.91768" lon="0.23842">
        <ele>1695.02</ele>
        <time>2018-10-20T14:52:58Z</time>
      </trkpt>
      <trkpt lat="42.91776" lon="0.23852">
        <ele>1692.84</ele>
        <time>2018-10-20T14:53:07Z</time>
      </trkpt>
      <trkpt lat="42.91788" lon="0.23864">
        <ele>1689.56</ele>
        <time>2018-10-20T14:53:19Z</time>
      </trkpt>
      <trkpt lat="42.91793" lon="0.23866">
        <ele>1688.04</ele>
        <time>2018-10-20T14:53:24Z</time>
      </trkpt>
      <trkpt lat="42.918" lon="0.23872">
        <ele>1685.09</ele>
        <time>2018-10-20T14:53:33Z</time>
      </trkpt>
      <trkpt lat="42.91803" lon="0.23872">
        <ele>1684.42</ele>
        <time>2018-10-20T14:53:36Z</time>
      </trkpt>
      <trkpt lat="42.91805" lon="0.2387">
        <ele>1683.89</ele>
        <time>2018-10-20T14:53:38Z</time>
      </trkpt>
      <trkpt lat="42.91811" lon="0.23872">
        <ele>1682.01</ele>
        <time>2018-10-20T14:53:43Z</time>
      </trkpt>
      <trkpt lat="42.91823" lon="0.23875">
        <ele>1678.65</ele>
        <time>2018-10-20T14:53:53Z</time>
      </trkpt>
      <trkpt lat="42.91827" lon="0.23879">
        <ele>1676.8</ele>
        <time>2018-10-20T14:53:57Z</time>
      </trkpt>
      <trkpt lat="42.91833" lon="0.2388">
        <ele>1673.71</ele>
        <time>2018-10-20T14:54:07Z</time>
      </trkpt>
      <trkpt lat="42.92065" lon="0.23966">
        <ele>1596.05</ele>
        <time>2018-10-20T15:04:47Z</time>
      </trkpt>
      <trkpt lat="42.92075" lon="0.23973">
        <ele>1592.99</ele>
        <time>2018-10-20T15:05:03Z</time>
      </trkpt>
      <trkpt lat="42.92082" lon="0.23978">
        <ele>1589.95</ele>
        <time>2018-10-20T15:05:20Z</time>
      </trkpt>
      <trkpt lat="42.92095" lon="0.23981">
        <ele>1587.92</ele>
        <time>2018-10-20T15:05:37Z</time>
      </trkpt>
      <trkpt lat="42.92103" lon="0.23984">
        <ele>1586.16</ele>
        <time>2018-10-20T15:05:47Z</time>
      </trkpt>
      <trkpt lat="42.92116" lon="0.23987">
        <ele>1583.99</ele>
        <time>2018-10-20T15:06:02Z</time>
      </trkpt>
      <trkpt lat="42.9213" lon="0.23992">
        <ele>1580.95</ele>
        <time>2018-10-20T15:06:19Z</time>
      </trkpt>
      <trkpt lat="42.92132" lon="0.23994">
        <ele>1580.34</ele>
        <time>2018-10-20T15:06:23Z</time>
      </trkpt>
      <trkpt lat="42.92137" lon="0.24">
        <ele>1578.64</ele>
        <time>2018-10-20T15:06:31Z</time>
      </trkpt>
      <trkpt lat="42.92152" lon="0.24003">
        <ele>1576.46</ele>
        <time>2018-10-20T15:06:47Z</time>
      </trkpt>
      <trkpt lat="42.92156" lon="0.24003">
        <ele>1575.11</ele>
        <time>2018-10-20T15:06:56Z</time>
      </trkpt>
      <trkpt lat="42.92336" lon="0.2405">
        <ele>1543.53</ele>
        <time>2018-10-20T15:13:18Z</time>
      </trkpt>
      <trkpt lat="42.92338" lon="0.24052">
        <ele>1543.21</ele>
        <time>2018-10-20T15:13:20Z</time>
      </trkpt>
      <trkpt lat="42.92342" lon="0.24058">
        <ele>1542.26</ele>
        <time>2018-10-20T15:13:26Z</time>
      </trkpt>
      <trkpt lat="42.92357" lon="0.24066">
        <ele>1539.12</ele>
        <time>2018-10-20T15:13:42Z</time>
      </trkpt>
      <trkpt lat="42.92369" lon="0.24077">
        <ele>1535.99</ele>
        <time>2018-10-20T15:13:55Z</time>
      </trkpt>
      <trkpt lat="42.92379" lon="0.24081">
        <ele>1532.78</ele>
        <time>2018-10-20T15:14:05Z</time>
      </trkpt>
      <trkpt lat="42.92378" lon="0.24082">
        <ele>1532.08</ele>
        <time>2018-10-20T15:14:08Z</time>
      </trkpt>
      <trkpt lat="42.92417" lon="0.24063">
        <ele>1527.34</ele>
        <time>2018-10-20T15:15:45Z</time>
      </trkpt>
      <trkpt lat="42.9242" lon="0.24063">
        <ele>1526.88</ele>
        <time>2018-10-20T15:15:47Z</time>
      </trkpt>
      <trkpt lat="42.9244" lon="0.24056">
        <ele>1523.49</ele>
        <time>2018-10-20T15:16:03Z</time>
      </trkpt>
      <trkpt lat="42.92452" lon="0.24052">
        <ele>1522.22</ele>
        <time>2018-10-20T15:16:11Z</time>
      </trkpt>
      <trkpt lat="42.92472" lon="0.24048">
        <ele>1519.78</ele>
        <time>2018-10-20T15:16:27Z</time>
      </trkpt>
      <trkpt lat="42.92488" lon="0.24049">
        <ele>1518.3</ele>
        <time>2018-10-20T15:16:42Z</time>
      </trkpt>
      <trkpt lat="42.92501" lon="0.24051">
        <ele>1516.69</ele>
        <time>2018-10-20T15:16:59Z</time>
      </trkpt>
      <trkpt lat="42.92516" lon="0.24052">
        <ele>1515.18</ele>
        <time>2018-10-20T15:17:25Z</time>
      </trkpt>
      <trkpt lat="42.92518" lon="0.24052">
        <ele>1515.03</ele>
        <time>2018-10-20T15:17:28Z</time>
      </trkpt>
      <trkpt lat="42.92523" lon="0.24054">
        <ele>1514.81</ele>
        <time>2018-10-20T15:17:33Z</time>
      </trkpt>
      <trkpt lat="42.92535" lon="0.24055">
        <ele>1513.91</ele>
        <time>2018-10-20T15:17:45Z</time>
      </trkpt>
      <trkpt lat="42.92539" lon="0.24057">
        <ele>1513.36</ele>
        <time>2018-10-20T15:17:49Z</time>
      </trkpt>
      <trkpt lat="42.92542" lon="0.24059">
        <ele>1512.83</ele>
        <time>2018-10-20T15:17:57Z</time>
      </trkpt>
      <trkpt lat="42.92547" lon="0.24055">
        <ele>1512.21</ele>
        <time>2018-10-20T15:18:10Z</time>
      </trkpt>
      <trkpt lat="42.92555" lon="0.24059">
        <ele>1511.74</ele>
        <time>2018-10-20T15:18:18Z</time>
      </trkpt>
      <trkpt lat="42.9257" lon="0.24058">
        <ele>1510.25</ele>
        <time>2018-10-20T15:18:31Z</time>
      </trkpt>
      <trkpt lat="42.9258" lon="0.24059">
        <ele>1508.36</ele>
        <time>2018-10-20T15:18:41Z</time>
      </trkpt>
      <trkpt lat="42.92581" lon="0.24059">
        <ele>1508.21</ele>
        <time>2018-10-20T15:18:42Z</time>
      </trkpt>
      <trkpt lat="42.92587" lon="0.24058">
        <ele>1507.68</ele>
        <time>2018-10-20T15:18:47Z</time>
      </trkpt>
      <trkpt lat="42.926" lon="0.24061">
        <ele>1505.83</ele>
        <time>2018-10-20T15:19:01Z</time>
      </trkpt>
      <trkpt lat="42.92604" lon="0.24063">
        <ele>1505.18</ele>
        <time>2018-10-20T15:19:06Z</time>
      </trkpt>
      <trkpt lat="42.9262" lon="0.24065">
        <ele>1502.89</ele>
        <time>2018-10-20T15:19:21Z</time>
      </trkpt>
      <trkpt lat="42.92625" lon="0.24066">
        <ele>1502.08</ele>
        <time>2018-10-20T15:19:26Z</time>
      </trkpt>
      <trkpt lat="42.92626" lon="0.24067">
        <ele>1501.7</ele>
        <time>2018-10-20T15:19:28Z</time>
      </trkpt>
      <trkpt lat="42.92643" lon="0.24072">
        <ele>1498.62</ele>
        <time>2018-10-20T15:19:46Z</time>
      </trkpt>
      <trkpt lat="42.92656" lon="0.24073">
        <ele>1496.86</ele>
        <time>2018-10-20T15:19:58Z</time>
      </trkpt>
      <trkpt lat="42.92669" lon="0.24082">
        <ele>1495.29</ele>
        <time>2018-10-20T15:20:13Z</time>
      </trkpt>
      <trkpt lat="42.92683" lon="0.24084">
        <ele>1493.13</ele>
        <time>2018-10-20T15:20:27Z</time>
      </trkpt>
      <trkpt lat="42.92684" lon="0.24084">
        <ele>1493</ele>
        <time>2018-10-20T15:20:28Z</time>
      </trkpt>
      <trkpt lat="42.9269" lon="0.24085">
        <ele>1492.37</ele>
        <time>2018-10-20T15:20:34Z</time>
      </trkpt>
      <trkpt lat="42.92704" lon="0.2409">
        <ele>1490.4</ele>
        <time>2018-10-20T15:20:49Z</time>
      </trkpt>
      <trkpt lat="42.92707" lon="0.24091">
        <ele>1490.12</ele>
        <time>2018-10-20T15:20:52Z</time>
      </trkpt>
      <trkpt lat="42.92713" lon="0.24095">
        <ele>1489.14</ele>
        <time>2018-10-20T15:20:59Z</time>
      </trkpt>
      <trkpt lat="42.92729" lon="0.24098">
        <ele>1486.71</ele>
        <time>2018-10-20T15:21:16Z</time>
      </trkpt>
      <trkpt lat="42.92738" lon="0.24097">
        <ele>1485.19</ele>
        <time>2018-10-20T15:21:28Z</time>
      </trkpt>
      <trkpt lat="42.92746" lon="0.24101">
        <ele>1484.08</ele>
        <time>2018-10-20T15:21:49Z</time>
      </trkpt>
      <trkpt lat="42.9276" lon="0.24105">
        <ele>1482.34</ele>
        <time>2018-10-20T15:22:01Z</time>
      </trkpt>
      <trkpt lat="42.92764" lon="0.24107">
        <ele>1481.76</ele>
        <time>2018-10-20T15:22:05Z</time>
      </trkpt>
      <trkpt lat="42.92773" lon="0.24109">
        <ele>1480.23</ele>
        <time>2018-10-20T15:22:15Z</time>
      </trkpt>
      <trkpt lat="42.9278" lon="0.24112">
        <ele>1479.16</ele>
        <time>2018-10-20T15:22:24Z</time>
      </trkpt>
      <trkpt lat="42.92782" lon="0.24112">
        <ele>1478.84</ele>
        <time>2018-10-20T15:22:26Z</time>
      </trkpt>
      <trkpt lat="42.92793" lon="0.24114">
        <ele>1477.21</ele>
        <time>2018-10-20T15:22:38Z</time>
      </trkpt>
      <trkpt lat="42.92805" lon="0.24123">
        <ele>1474.6</ele>
        <time>2018-10-20T15:22:51Z</time>
      </trkpt>
      <trkpt lat="42.92816" lon="0.2413">
        <ele>1471.58</ele>
        <time>2018-10-20T15:23:05Z</time>
      </trkpt>
      <trkpt lat="42.92817" lon="0.24131">
        <ele>1471.36</ele>
        <time>2018-10-20T15:23:06Z</time>
      </trkpt>
      <trkpt lat="42.92821" lon="0.24134">
        <ele>1470.19</ele>
        <time>2018-10-20T15:23:11Z</time>
      </trkpt>
      <trkpt lat="42.9283" lon="0.24149">
        <ele>1467.71</ele>
        <time>2018-10-20T15:23:26Z</time>
      </trkpt>
      <trkpt lat="42.92842" lon="0.24158">
        <ele>1465.53</ele>
        <time>2018-10-20T15:23:41Z</time>
      </trkpt>
      <trkpt lat="42.92851" lon="0.24172">
        <ele>1463.82</ele>
        <time>2018-10-20T15:23:55Z</time>
      </trkpt>
      <trkpt lat="42.92852" lon="0.24172">
        <ele>1463.73</ele>
        <time>2018-10-20T15:23:56Z</time>
      </trkpt>
      <trkpt lat="42.92864" lon="0.24178">
        <ele>1461.51</ele>
        <time>2018-10-20T15:24:12Z</time>
      </trkpt>
      <trkpt lat="42.92879" lon="0.2418">
        <ele>1459.43</ele>
        <time>2018-10-20T15:24:26Z</time>
      </trkpt>
      <trkpt lat="42.92892" lon="0.24189">
        <ele>1457.61</ele>
        <time>2018-10-20T15:24:41Z</time>
      </trkpt>
      <trkpt lat="42.92903" lon="0.24198">
        <ele>1456.41</ele>
        <time>2018-10-20T15:24:54Z</time>
      </trkpt>
      <trkpt lat="42.92904" lon="0.24201">
        <ele>1456.25</ele>
        <time>2018-10-20T15:24:56Z</time>
      </trkpt>
      <trkpt lat="42.92918" lon="0.24212">
        <ele>1454.77</ele>
        <time>2018-10-20T15:25:12Z</time>
      </trkpt>
      <trkpt lat="42.92933" lon="0.24219">
        <ele>1454.22</ele>
        <time>2018-10-20T15:25:28Z</time>
      </trkpt>
      <trkpt lat="42.92946" lon="0.24232">
        <ele>1453.07</ele>
        <time>2018-10-20T15:25:44Z</time>
      </trkpt>
      <trkpt lat="42.92954" lon="0.2424">
        <ele>1451.96</ele>
        <time>2018-10-20T15:25:57Z</time>
      </trkpt>
      <trkpt lat="42.92954" lon="0.2424">
        <ele>1451.81</ele>
        <time>2018-10-20T15:25:59Z</time>
      </trkpt>
      <trkpt lat="42.92961" lon="0.24244">
        <ele>1451.33</ele>
        <time>2018-10-20T15:26:17Z</time>
      </trkpt>
      <trkpt lat="42.92963" lon="0.24244">
        <ele>1451.25</ele>
        <time>2018-10-20T15:26:19Z</time>
      </trkpt>
      <trkpt lat="42.92973" lon="0.24246">
        <ele>1450.57</ele>
        <time>2018-10-20T15:26:28Z</time>
      </trkpt>
      <trkpt lat="42.92981" lon="0.24253">
        <ele>1449.87</ele>
        <time>2018-10-20T15:26:41Z</time>
      </trkpt>
      <trkpt lat="42.92995" lon="0.2426">
        <ele>1449.64</ele>
        <time>2018-10-20T15:27:27Z</time>
      </trkpt>
      <trkpt lat="42.93005" lon="0.2427">
        <ele>1449.64</ele>
        <time>2018-10-20T15:27:41Z</time>
      </trkpt>
      <trkpt lat="42.93029" lon="0.24286">
        <ele>1450.59</ele>
        <time>2018-10-20T15:28:07Z</time>
      </trkpt>
      <trkpt lat="42.9304" lon="0.24297">
        <ele>1450.95</ele>
        <time>2018-10-20T15:28:21Z</time>
      </trkpt>
      <trkpt lat="42.93047" lon="0.24309">
        <ele>1451.09</ele>
        <time>2018-10-20T15:28:31Z</time>
      </trkpt>
      <trkpt lat="42.93055" lon="0.24312">
        <ele>1451.2</ele>
        <time>2018-10-20T15:28:38Z</time>
      </trkpt>
      <trkpt lat="42.93058" lon="0.24314">
        <ele>1451.25</ele>
        <time>2018-10-20T15:28:41Z</time>
      </trkpt>
      <trkpt lat="42.93071" lon="0.2433">
        <ele>1451.03</ele>
        <time>2018-10-20T15:28:59Z</time>
      </trkpt>
      <trkpt lat="42.93081" lon="0.24341">
        <ele>1451.05</ele>
        <time>2018-10-20T15:29:13Z</time>
      </trkpt>
      <trkpt lat="42.93084" lon="0.24349">
        <ele>1450.7</ele>
        <time>2018-10-20T15:29:20Z</time>
      </trkpt>
      <trkpt lat="42.93094" lon="0.24356">
        <ele>1449.87</ele>
        <time>2018-10-20T15:29:32Z</time>
      </trkpt>
      <trkpt lat="42.93095" lon="0.24358">
        <ele>1449.7</ele>
        <time>2018-10-20T15:29:34Z</time>
      </trkpt>
      <trkpt lat="42.93106" lon="0.24364">
        <ele>1448.94</ele>
        <time>2018-10-20T15:29:45Z</time>
      </trkpt>
      <trkpt lat="42.93117" lon="0.24371">
        <ele>1447.97</ele>
        <time>2018-10-20T15:29:58Z</time>
      </trkpt>
      <trkpt lat="42.93122" lon="0.24375">
        <ele>1447.61</ele>
        <time>2018-10-20T15:30:04Z</time>
      </trkpt>
      <trkpt lat="42.93134" lon="0.24387">
        <ele>1446.86</ele>
        <time>2018-10-20T15:30:19Z</time>
      </trkpt>
      <trkpt lat="42.93143" lon="0.24399">
        <ele>1446.26</ele>
        <time>2018-10-20T15:30:32Z</time>
      </trkpt>
      <trkpt lat="42.93152" lon="0.2441">
        <ele>1446.22</ele>
        <time>2018-10-20T15:30:45Z</time>
      </trkpt>
      <trkpt lat="42.9316" lon="0.2442">
        <ele>1445.86</ele>
        <time>2018-10-20T15:30:58Z</time>
      </trkpt>
      <trkpt lat="42.93168" lon="0.24427">
        <ele>1445.3</ele>
        <time>2018-10-20T15:31:08Z</time>
      </trkpt>
      <trkpt lat="42.93177" lon="0.24439">
        <ele>1444.76</ele>
        <time>2018-10-20T15:31:23Z</time>
      </trkpt>
      <trkpt lat="42.93185" lon="0.24448">
        <ele>1444.44</ele>
        <time>2018-10-20T15:31:34Z</time>
      </trkpt>
      <trkpt lat="42.93189" lon="0.24452">
        <ele>1444.32</ele>
        <time>2018-10-20T15:31:39Z</time>
      </trkpt>
      <trkpt lat="42.93197" lon="0.24458">
        <ele>1443.58</ele>
        <time>2018-10-20T15:31:50Z</time>
      </trkpt>
      <trkpt lat="42.93198" lon="0.24461">
        <ele>1443.44</ele>
        <time>2018-10-20T15:31:52Z</time>
      </trkpt>
      <trkpt lat="42.93208" lon="0.24472">
        <ele>1442.35</ele>
        <time>2018-10-20T15:32:07Z</time>
      </trkpt>
      <trkpt lat="42.93216" lon="0.24479">
        <ele>1441.94</ele>
        <time>2018-10-20T15:32:18Z</time>
      </trkpt>
      <trkpt lat="42.93218" lon="0.24481">
        <ele>1441.69</ele>
        <time>2018-10-20T15:32:22Z</time>
      </trkpt>
      <trkpt lat="42.93222" lon="0.24486">
        <ele>1441.45</ele>
        <time>2018-10-20T15:32:28Z</time>
      </trkpt>
      <trkpt lat="42.93232" lon="0.24498">
        <ele>1440.01</ele>
        <time>2018-10-20T15:32:43Z</time>
      </trkpt>
      <trkpt lat="42.93233" lon="0.24499">
        <ele>1439.93</ele>
        <time>2018-10-20T15:32:44Z</time>
      </trkpt>
      <trkpt lat="42.93238" lon="0.24507">
        <ele>1439.24</ele>
        <time>2018-10-20T15:32:52Z</time>
      </trkpt>
      <trkpt lat="42.93239" lon="0.24508">
        <ele>1439.1</ele>
        <time>2018-10-20T15:32:54Z</time>
      </trkpt>
      <trkpt lat="42.93241" lon="0.2451">
        <ele>1438.93</ele>
        <time>2018-10-20T15:32:56Z</time>
      </trkpt>
      <trkpt lat="42.93244" lon="0.24513">
        <ele>1438.64</ele>
        <time>2018-10-20T15:33:00Z</time>
      </trkpt>
      <trkpt lat="42.93251" lon="0.2452">
        <ele>1437.85</ele>
        <time>2018-10-20T15:33:09Z</time>
      </trkpt>
      <trkpt lat="42.93263" lon="0.24531">
        <ele>1436.54</ele>
        <time>2018-10-20T15:33:24Z</time>
      </trkpt>
      <trkpt lat="42.93271" lon="0.24539">
        <ele>1435.49</ele>
        <time>2018-10-20T15:33:38Z</time>
      </trkpt>
      <trkpt lat="42.93272" lon="0.24539">
        <ele>1435.34</ele>
        <time>2018-10-20T15:33:40Z</time>
      </trkpt>
      <trkpt lat="42.93275" lon="0.24543">
        <ele>1434.83</ele>
        <time>2018-10-20T15:35:43Z</time>
      </trkpt>
      <trkpt lat="42.93279" lon="0.24549">
        <ele>1434.49</ele>
        <time>2018-10-20T15:35:47Z</time>
      </trkpt>
      <trkpt lat="42.93285" lon="0.24557">
        <ele>1433.91</ele>
        <time>2018-10-20T15:35:54Z</time>
      </trkpt>
      <trkpt lat="42.93289" lon="0.24565">
        <ele>1433.54</ele>
        <time>2018-10-20T15:35:59Z</time>
      </trkpt>
      <trkpt lat="42.93294" lon="0.24572">
        <ele>1433.16</ele>
        <time>2018-10-20T15:36:05Z</time>
      </trkpt>
      <trkpt lat="42.93305" lon="0.24585">
        <ele>1432.27</ele>
        <time>2018-10-20T15:36:17Z</time>
      </trkpt>
      <trkpt lat="42.93318" lon="0.24601">
        <ele>1430.18</ele>
        <time>2018-10-20T15:36:32Z</time>
      </trkpt>
      <trkpt lat="42.93324" lon="0.24606">
        <ele>1429.05</ele>
        <time>2018-10-20T15:36:41Z</time>
      </trkpt>
      <trkpt lat="42.93329" lon="0.24617">
        <ele>1427.99</ele>
        <time>2018-10-20T15:39:09Z</time>
      </trkpt>
      <trkpt lat="42.93335" lon="0.24621">
        <ele>1427.51</ele>
        <time>2018-10-20T15:39:14Z</time>
      </trkpt>
      <trkpt lat="42.9334" lon="0.24627">
        <ele>1426.77</ele>
        <time>2018-10-20T15:39:18Z</time>
      </trkpt>
      <trkpt lat="42.93349" lon="0.2464">
        <ele>1424.57</ele>
        <time>2018-10-20T15:39:28Z</time>
      </trkpt>
      <trkpt lat="42.93368" lon="0.24663">
        <ele>1421.62</ele>
        <time>2018-10-20T15:39:43Z</time>
      </trkpt>
      <trkpt lat="42.93373" lon="0.24671">
        <ele>1420.12</ele>
        <time>2018-10-20T15:39:47Z</time>
      </trkpt>
      <trkpt lat="42.93383" lon="0.24688">
        <ele>1417.07</ele>
        <time>2018-10-20T15:39:58Z</time>
      </trkpt>
      <trkpt lat="42.93385" lon="0.24691">
        <ele>1416.59</ele>
        <time>2018-10-20T15:40:00Z</time>
      </trkpt>
      <trkpt lat="42.93398" lon="0.24708">
        <ele>1413.51</ele>
        <time>2018-10-20T15:40:14Z</time>
      </trkpt>
      <trkpt lat="42.93406" lon="0.24719">
        <ele>1410.88</ele>
        <time>2018-10-20T15:40:29Z</time>
      </trkpt>
      <trkpt lat="42.93407" lon="0.24722">
        <ele>1409.84</ele>
        <time>2018-10-20T15:40:34Z</time>
      </trkpt>
      <trkpt lat="42.93426" lon="0.2474">
        <ele>1405.55</ele>
        <time>2018-10-20T15:41:11Z</time>
      </trkpt>
      <trkpt lat="42.93448" lon="0.2474">
        <ele>1404.02</ele>
        <time>2018-10-20T15:41:29Z</time>
      </trkpt>
      <trkpt lat="42.93456" lon="0.24742">
        <ele>1402.98</ele>
        <time>2018-10-20T15:41:41Z</time>
      </trkpt>
      <trkpt lat="42.93461" lon="0.24758">
        <ele>1402.16</ele>
        <time>2018-10-20T15:42:27Z</time>
      </trkpt>
      <trkpt lat="42.93463" lon="0.24762">
        <ele>1401.97</ele>
        <time>2018-10-20T15:42:30Z</time>
      </trkpt>
      <trkpt lat="42.9347" lon="0.24781">
        <ele>1400.9</ele>
        <time>2018-10-20T15:42:43Z</time>
      </trkpt>
      <trkpt lat="42.93475" lon="0.24784">
        <ele>1400.49</ele>
        <time>2018-10-20T15:42:48Z</time>
      </trkpt>
      <trkpt lat="42.93488" lon="0.24792">
        <ele>1398.15</ele>
        <time>2018-10-20T15:43:01Z</time>
      </trkpt>
      <trkpt lat="42.9349" lon="0.24793">
        <ele>1397.81</ele>
        <time>2018-10-20T15:43:03Z</time>
      </trkpt>
      <trkpt lat="42.93491" lon="0.24795">
        <ele>1397.2</ele>
        <time>2018-10-20T15:43:06Z</time>
      </trkpt>
      <trkpt lat="42.93496" lon="0.24804">
        <ele>1395.94</ele>
        <time>2018-10-20T15:43:17Z</time>
      </trkpt>
      <trkpt lat="42.93499" lon="0.24809">
        <ele>1395.49</ele>
        <time>2018-10-20T15:43:21Z</time>
      </trkpt>
      <trkpt lat="42.93503" lon="0.24814">
        <ele>1394.78</ele>
        <time>2018-10-20T15:43:25Z</time>
      </trkpt>
      <trkpt lat="42.93507" lon="0.24821">
        <ele>1393.57</ele>
        <time>2018-10-20T15:43:30Z</time>
      </trkpt>
      <trkpt lat="42.93508" lon="0.24826">
        <ele>1393.04</ele>
        <time>2018-10-20T15:43:33Z</time>
      </trkpt>
      <trkpt lat="42.93515" lon="0.24833">
        <ele>1391.95</ele>
        <time>2018-10-20T15:43:40Z</time>
      </trkpt>
      <trkpt lat="42.93534" lon="0.24839">
        <ele>1389.25</ele>
        <time>2018-10-20T15:43:56Z</time>
      </trkpt>
      <trkpt lat="42.93551" lon="0.24844">
        <ele>1386.86</ele>
        <time>2018-10-20T15:44:08Z</time>
      </trkpt>
      <trkpt lat="42.93558" lon="0.24852">
        <ele>1385.85</ele>
        <time>2018-10-20T15:44:15Z</time>
      </trkpt>
      <trkpt lat="42.93573" lon="0.24862">
        <ele>1384.46</ele>
        <time>2018-10-20T15:44:30Z</time>
      </trkpt>
      <trkpt lat="42.93587" lon="0.24874">
        <ele>1383.15</ele>
        <time>2018-10-20T15:44:43Z</time>
      </trkpt>
      <trkpt lat="42.93599" lon="0.24882">
        <ele>1381.62</ele>
        <time>2018-10-20T15:44:56Z</time>
      </trkpt>
      <trkpt lat="42.93601" lon="0.24883">
        <ele>1381.41</ele>
        <time>2018-10-20T15:44:58Z</time>
      </trkpt>
      <trkpt lat="42.93611" lon="0.24892">
        <ele>1379.36</ele>
        <time>2018-10-20T15:45:10Z</time>
      </trkpt>
      <trkpt lat="42.93625" lon="0.24901">
        <ele>1377.82</ele>
        <time>2018-10-20T15:45:24Z</time>
      </trkpt>
      <trkpt lat="42.93627" lon="0.24899">
        <ele>1376.99</ele>
        <time>2018-10-20T15:45:31Z</time>
      </trkpt>
      <trkpt lat="42.93631" lon="0.24904">
        <ele>1376.04</ele>
        <time>2018-10-20T15:45:59Z</time>
      </trkpt>
      <trkpt lat="42.93634" lon="0.2491">
        <ele>1375.88</ele>
        <time>2018-10-20T15:46:04Z</time>
      </trkpt>
      <trkpt lat="42.93636" lon="0.24913">
        <ele>1375.87</ele>
        <time>2018-10-20T15:46:06Z</time>
      </trkpt>
      <trkpt lat="42.93651" lon="0.24926">
        <ele>1375.13</ele>
        <time>2018-10-20T15:46:21Z</time>
      </trkpt>
      <trkpt lat="42.93654" lon="0.24927">
        <ele>1374.95</ele>
        <time>2018-10-20T15:46:24Z</time>
      </trkpt>
      <trkpt lat="42.93658" lon="0.24926">
        <ele>1374.67</ele>
        <time>2018-10-20T15:46:27Z</time>
      </trkpt>
      <trkpt lat="42.93676" lon="0.24936">
        <ele>1372.89</ele>
        <time>2018-10-20T15:46:43Z</time>
      </trkpt>
      <trkpt lat="42.93693" lon="0.24941">
        <ele>1370.46</ele>
        <time>2018-10-20T15:46:57Z</time>
      </trkpt>
      <trkpt lat="42.93697" lon="0.24945">
        <ele>1369.26</ele>
        <time>2018-10-20T15:47:06Z</time>
      </trkpt>
      <trkpt lat="42.93702" lon="0.24945">
        <ele>1368.61</ele>
        <time>2018-10-20T15:47:45Z</time>
      </trkpt>
      <trkpt lat="42.93704" lon="0.24945">
        <ele>1368.55</ele>
        <time>2018-10-20T15:47:47Z</time>
      </trkpt>
      <trkpt lat="42.93723" lon="0.24953">
        <ele>1366.69</ele>
        <time>2018-10-20T15:48:02Z</time>
      </trkpt>
      <trkpt lat="42.93729" lon="0.24961">
        <ele>1365.3</ele>
        <time>2018-10-20T15:48:09Z</time>
      </trkpt>
      <trkpt lat="42.93735" lon="0.24967">
        <ele>1364.67</ele>
        <time>2018-10-20T15:48:15Z</time>
      </trkpt>
      <trkpt lat="42.93742" lon="0.24974">
        <ele>1363.89</ele>
        <time>2018-10-20T15:48:23Z</time>
      </trkpt>
      <trkpt lat="42.93751" lon="0.24973">
        <ele>1362.21</ele>
        <time>2018-10-20T15:48:32Z</time>
      </trkpt>
      <trkpt lat="42.93755" lon="0.2498">
        <ele>1360.89</ele>
        <time>2018-10-20T15:48:41Z</time>
      </trkpt>
      <trkpt lat="42.93779" lon="0.24999">
        <ele>1357.56</ele>
        <time>2018-10-20T15:50:05Z</time>
      </trkpt>
      <trkpt lat="42.93792" lon="0.25019">
        <ele>1356.96</ele>
        <time>2018-10-20T15:50:23Z</time>
      </trkpt>
      <trkpt lat="42.93795" lon="0.25024">
        <ele>1356.41</ele>
        <time>2018-10-20T15:50:29Z</time>
      </trkpt>
      <trkpt lat="42.938" lon="0.25025">
        <ele>1355.83</ele>
        <time>2018-10-20T15:50:34Z</time>
      </trkpt>
      <trkpt lat="42.93804" lon="0.2503">
        <ele>1354.42</ele>
        <time>2018-10-20T15:50:39Z</time>
      </trkpt>
      <trkpt lat="42.93814" lon="0.25045">
        <ele>1351.62</ele>
        <time>2018-10-20T15:50:50Z</time>
      </trkpt>
      <trkpt lat="42.93815" lon="0.25047">
        <ele>1351.04</ele>
        <time>2018-10-20T15:50:52Z</time>
      </trkpt>
      <trkpt lat="42.93821" lon="0.25055">
        <ele>1349.44</ele>
        <time>2018-10-20T15:50:59Z</time>
      </trkpt>
      <trkpt lat="42.93834" lon="0.25063">
        <ele>1346.08</ele>
        <time>2018-10-20T15:51:10Z</time>
      </trkpt>
      <trkpt lat="42.93838" lon="0.25066">
        <ele>1344.96</ele>
        <time>2018-10-20T15:51:16Z</time>
      </trkpt>
      <trkpt lat="42.93886" lon="0.25115">
        <ele>1342.65</ele>
        <time>2018-10-20T15:52:43Z</time>
      </trkpt>
      <trkpt lat="42.93888" lon="0.25116">
        <ele>1342.43</ele>
        <time>2018-10-20T15:52:45Z</time>
      </trkpt>
      <trkpt lat="42.93892" lon="0.25119">
        <ele>1341.63</ele>
        <time>2018-10-20T15:52:51Z</time>
      </trkpt>
      <trkpt lat="42.93903" lon="0.25128">
        <ele>1340.73</ele>
        <time>2018-10-20T15:53:07Z</time>
      </trkpt>
      <trkpt lat="42.93915" lon="0.25136">
        <ele>1340.73</ele>
        <time>2018-10-20T15:53:24Z</time>
      </trkpt>
      <trkpt lat="42.93921" lon="0.25142">
        <ele>1340.92</ele>
        <time>2018-10-20T15:53:32Z</time>
      </trkpt>
      <trkpt lat="42.93928" lon="0.2515">
        <ele>1341.18</ele>
        <time>2018-10-20T15:53:42Z</time>
      </trkpt>
      <trkpt lat="42.93932" lon="0.25155">
        <ele>1340.99</ele>
        <time>2018-10-20T15:53:47Z</time>
      </trkpt>
      <trkpt lat="42.93943" lon="0.25164">
        <ele>1339.88</ele>
        <time>2018-10-20T15:54:01Z</time>
      </trkpt>
      <trkpt lat="42.93954" lon="0.25179">
        <ele>1338.25</ele>
        <time>2018-10-20T15:54:15Z</time>
      </trkpt>
      <trkpt lat="42.93957" lon="0.25182">
        <ele>1337.94</ele>
        <time>2018-10-20T15:54:18Z</time>
      </trkpt>
      <trkpt lat="42.9396" lon="0.25188">
        <ele>1337.26</ele>
        <time>2018-10-20T15:54:23Z</time>
      </trkpt>
      <trkpt lat="42.93965" lon="0.2519">
        <ele>1336.46</ele>
        <time>2018-10-20T15:54:28Z</time>
      </trkpt>
      <trkpt lat="42.93975" lon="0.25195">
        <ele>1335.68</ele>
        <time>2018-10-20T15:54:37Z</time>
      </trkpt>
      <trkpt lat="42.93979" lon="0.25199">
        <ele>1335.21</ele>
        <time>2018-10-20T15:54:41Z</time>
      </trkpt>
      <trkpt lat="42.93988" lon="0.25207">
        <ele>1334.18</ele>
        <time>2018-10-20T15:54:51Z</time>
      </trkpt>
      <trkpt lat="42.94" lon="0.25222">
        <ele>1333.15</ele>
        <time>2018-10-20T15:55:06Z</time>
      </trkpt>
      <trkpt lat="42.94007" lon="0.2524">
        <ele>1332.13</ele>
        <time>2018-10-20T15:55:21Z</time>
      </trkpt>
      <trkpt lat="42.9401" lon="0.25243">
        <ele>1331.72</ele>
        <time>2018-10-20T15:55:25Z</time>
      </trkpt>
      <trkpt lat="42.94015" lon="0.25258">
        <ele>1330.09</ele>
        <time>2018-10-20T15:55:38Z</time>
      </trkpt>
      <trkpt lat="42.94016" lon="0.25264">
        <ele>1329.5</ele>
        <time>2018-10-20T15:55:42Z</time>
      </trkpt>
      <trkpt lat="42.94017" lon="0.25267">
        <ele>1329.23</ele>
        <time>2018-10-20T15:55:44Z</time>
      </trkpt>
      <trkpt lat="42.94019" lon="0.25271">
        <ele>1328.4</ele>
        <time>2018-10-20T15:55:50Z</time>
      </trkpt>
      <trkpt lat="42.94023" lon="0.2529">
        <ele>1325.51</ele>
        <time>2018-10-20T15:56:11Z</time>
      </trkpt>
      <trkpt lat="42.94023" lon="0.25291">
        <ele>1325.16</ele>
        <time>2018-10-20T15:56:12Z</time>
      </trkpt>
      <trkpt lat="42.94023" lon="0.253">
        <ele>1324.02</ele>
        <time>2018-10-20T15:56:18Z</time>
      </trkpt>
      <trkpt lat="42.94024" lon="0.25306">
        <ele>1323.03</ele>
        <time>2018-10-20T15:56:23Z</time>
      </trkpt>
      <trkpt lat="42.94026" lon="0.25311">
        <ele>1322.42</ele>
        <time>2018-10-20T15:56:27Z</time>
      </trkpt>
      <trkpt lat="42.94026" lon="0.25317">
        <ele>1321.48</ele>
        <time>2018-10-20T15:56:32Z</time>
      </trkpt>
      <trkpt lat="42.94032" lon="0.25323">
        <ele>1320.61</ele>
        <time>2018-10-20T15:56:40Z</time>
      </trkpt>
      <trkpt lat="42.94041" lon="0.25335">
        <ele>1320.47</ele>
        <time>2018-10-20T15:56:57Z</time>
      </trkpt>
      <trkpt lat="42.94041" lon="0.25337">
        <ele>1320.73</ele>
        <time>2018-10-20T15:57:02Z</time>
      </trkpt>
      <trkpt lat="42.9406" lon="0.2539">
        <ele>1320.65</ele>
        <time>2018-10-20T15:59:10Z</time>
      </trkpt>
      <trkpt lat="42.94068" lon="0.25404">
        <ele>1317.69</ele>
        <time>2018-10-20T15:59:24Z</time>
      </trkpt>
      <trkpt lat="42.94069" lon="0.25407">
        <ele>1317.43</ele>
        <time>2018-10-20T15:59:26Z</time>
      </trkpt>
      <trkpt lat="42.94079" lon="0.25422">
        <ele>1315.07</ele>
        <time>2018-10-20T15:59:38Z</time>
      </trkpt>
      <trkpt lat="42.94084" lon="0.25426">
        <ele>1314.03</ele>
        <time>2018-10-20T15:59:43Z</time>
      </trkpt>
      <trkpt lat="42.94092" lon="0.25446">
        <ele>1310.93</ele>
        <time>2018-10-20T15:59:57Z</time>
      </trkpt>
      <trkpt lat="42.94097" lon="0.2545">
        <ele>1309.95</ele>
        <time>2018-10-20T16:00:02Z</time>
      </trkpt>
      <trkpt lat="42.94109" lon="0.25468">
        <ele>1307.49</ele>
        <time>2018-10-20T16:00:16Z</time>
      </trkpt>
      <trkpt lat="42.94113" lon="0.25478">
        <ele>1306.49</ele>
        <time>2018-10-20T16:00:22Z</time>
      </trkpt>
      <trkpt lat="42.94122" lon="0.25493">
        <ele>1304.27</ele>
        <time>2018-10-20T16:00:34Z</time>
      </trkpt>
      <trkpt lat="42.94123" lon="0.25495">
        <ele>1304.02</ele>
        <time>2018-10-20T16:00:35Z</time>
      </trkpt>
      <trkpt lat="42.94125" lon="0.25498">
        <ele>1302.75</ele>
        <time>2018-10-20T16:00:41Z</time>
      </trkpt>
      <trkpt lat="42.94128" lon="0.25504">
        <ele>1302.2</ele>
        <time>2018-10-20T16:00:47Z</time>
      </trkpt>
      <trkpt lat="42.94129" lon="0.25506">
        <ele>1301.97</ele>
        <time>2018-10-20T16:00:49Z</time>
      </trkpt>
      <trkpt lat="42.94131" lon="0.25512">
        <ele>1301.05</ele>
        <time>2018-10-20T16:00:57Z</time>
      </trkpt>
      <trkpt lat="42.94135" lon="0.25525">
        <ele>1300.38</ele>
        <time>2018-10-20T16:01:15Z</time>
      </trkpt>
      <trkpt lat="42.94138" lon="0.25532">
        <ele>1299.68</ele>
        <time>2018-10-20T16:01:21Z</time>
      </trkpt>
      <trkpt lat="42.9414" lon="0.25541">
        <ele>1298.75</ele>
        <time>2018-10-20T16:01:27Z</time>
      </trkpt>
      <trkpt lat="42.94143" lon="0.25549">
        <ele>1297.32</ele>
        <time>2018-10-20T16:01:34Z</time>
      </trkpt>
      <trkpt lat="42.94147" lon="0.25574">
        <ele>1294.34</ele>
        <time>2018-10-20T16:01:51Z</time>
      </trkpt>
      <trkpt lat="42.94149" lon="0.25583">
        <ele>1293.08</ele>
        <time>2018-10-20T16:01:57Z</time>
      </trkpt>
      <trkpt lat="42.94154" lon="0.25605">
        <ele>1290.21</ele>
        <time>2018-10-20T16:02:12Z</time>
      </trkpt>
      <trkpt lat="42.94154" lon="0.25609">
        <ele>1289.65</ele>
        <time>2018-10-20T16:02:15Z</time>
      </trkpt>
      <trkpt lat="42.94154" lon="0.25618">
        <ele>1287.44</ele>
        <time>2018-10-20T16:02:24Z</time>
      </trkpt>
      <trkpt lat="42.94153" lon="0.25624">
        <ele>1285.62</ele>
        <time>2018-10-20T16:02:31Z</time>
      </trkpt>
      <trkpt lat="42.94158" lon="0.25652">
        <ele>1283.89</ele>
        <time>2018-10-20T16:03:38Z</time>
      </trkpt>
      <trkpt lat="42.9416" lon="0.25662">
        <ele>1283.44</ele>
        <time>2018-10-20T16:03:45Z</time>
      </trkpt>
      <trkpt lat="42.94161" lon="0.25677">
        <ele>1282.43</ele>
        <time>2018-10-20T16:03:56Z</time>
      </trkpt>
      <trkpt lat="42.94163" lon="0.257">
        <ele>1281.12</ele>
        <time>2018-10-20T16:04:11Z</time>
      </trkpt>
      <trkpt lat="42.94162" lon="0.25719">
        <ele>1279.73</ele>
        <time>2018-10-20T16:04:23Z</time>
      </trkpt>
      <trkpt lat="42.94163" lon="0.25739">
        <ele>1278.67</ele>
        <time>2018-10-20T16:04:36Z</time>
      </trkpt>
      <trkpt lat="42.94164" lon="0.25764">
        <ele>1279.07</ele>
        <time>2018-10-20T16:04:53Z</time>
      </trkpt>
      <trkpt lat="42.94166" lon="0.25787">
        <ele>1278.94</ele>
        <time>2018-10-20T16:05:08Z</time>
      </trkpt>
      <trkpt lat="42.94167" lon="0.2579">
        <ele>1278.9</ele>
        <time>2018-10-20T16:05:10Z</time>
      </trkpt>
      <trkpt lat="42.94168" lon="0.25809">
        <ele>1278.31</ele>
        <time>2018-10-20T16:05:23Z</time>
      </trkpt>
      <trkpt lat="42.94168" lon="0.25817">
        <ele>1277.81</ele>
        <time>2018-10-20T16:05:29Z</time>
      </trkpt>
      <trkpt lat="42.94167" lon="0.2582">
        <ele>1277.65</ele>
        <time>2018-10-20T16:05:31Z</time>
      </trkpt>
      <trkpt lat="42.94168" lon="0.25828">
        <ele>1276.98</ele>
        <time>2018-10-20T16:05:36Z</time>
      </trkpt>
      <trkpt lat="42.94167" lon="0.25849">
        <ele>1274.2</ele>
        <time>2018-10-20T16:05:49Z</time>
      </trkpt>
      <trkpt lat="42.94165" lon="0.25858">
        <ele>1272.91</ele>
        <time>2018-10-20T16:05:55Z</time>
      </trkpt>
      <trkpt lat="42.94163" lon="0.2586">
        <ele>1272.54</ele>
        <time>2018-10-20T16:05:57Z</time>
      </trkpt>
      <trkpt lat="42.94163" lon="0.25864">
        <ele>1271.95</ele>
        <time>2018-10-20T16:06:00Z</time>
      </trkpt>
      <trkpt lat="42.94154" lon="0.25878">
        <ele>1269.03</ele>
        <time>2018-10-20T16:06:13Z</time>
      </trkpt>
      <trkpt lat="42.94154" lon="0.25879">
        <ele>1268.85</ele>
        <time>2018-10-20T16:06:14Z</time>
      </trkpt>
      <trkpt lat="42.94151" lon="0.25888">
        <ele>1267.02</ele>
        <time>2018-10-20T16:06:21Z</time>
      </trkpt>
      <trkpt lat="42.94146" lon="0.25906">
        <ele>1263.62</ele>
        <time>2018-10-20T16:06:34Z</time>
      </trkpt>
      <trkpt lat="42.94144" lon="0.25908">
        <ele>1262.72</ele>
        <time>2018-10-20T16:06:41Z</time>
      </trkpt>
      <trkpt lat="42.94158" lon="0.25913">
        <ele>1261.14</ele>
        <time>2018-10-20T16:07:45Z</time>
      </trkpt>
      <trkpt lat="42.94164" lon="0.25914">
        <ele>1260.35</ele>
        <time>2018-10-20T16:07:51Z</time>
      </trkpt>
      <trkpt lat="42.94179" lon="0.25923">
        <ele>1258.64</ele>
        <time>2018-10-20T16:08:10Z</time>
      </trkpt>
      <trkpt lat="42.94179" lon="0.25922">
        <ele>1258.45</ele>
        <time>2018-10-20T16:08:13Z</time>
      </trkpt>
      <trkpt lat="42.94186" lon="0.2593">
        <ele>1257.73</ele>
        <time>2018-10-20T16:08:28Z</time>
      </trkpt>
      <trkpt lat="42.94187" lon="0.25931">
        <ele>1257.68</ele>
        <time>2018-10-20T16:08:29Z</time>
      </trkpt>
      <trkpt lat="42.9419" lon="0.25941">
        <ele>1256.75</ele>
        <time>2018-10-20T16:08:35Z</time>
      </trkpt>
      <trkpt lat="42.94194" lon="0.25947">
        <ele>1256.21</ele>
        <time>2018-10-20T16:08:39Z</time>
      </trkpt>
      <trkpt lat="42.94198" lon="0.25956">
        <ele>1255.68</ele>
        <time>2018-10-20T16:08:44Z</time>
      </trkpt>
      <trkpt lat="42.94206" lon="0.25983">
        <ele>1254.09</ele>
        <time>2018-10-20T16:08:59Z</time>
      </trkpt>
      <trkpt lat="42.94211" lon="0.26003">
        <ele>1253.29</ele>
        <time>2018-10-20T16:09:13Z</time>
      </trkpt>
      <trkpt lat="42.94214" lon="0.26025">
        <ele>1252.41</ele>
        <time>2018-10-20T16:09:27Z</time>
      </trkpt>
      <trkpt lat="42.94219" lon="0.26044">
        <ele>1251.61</ele>
        <time>2018-10-20T16:09:40Z</time>
      </trkpt>
      <trkpt lat="42.94226" lon="0.26069">
        <ele>1251.13</ele>
        <time>2018-10-20T16:09:58Z</time>
      </trkpt>
      <trkpt lat="42.94232" lon="0.2609">
        <ele>1250.49</ele>
        <time>2018-10-20T16:10:13Z</time>
      </trkpt>
      <trkpt lat="42.94236" lon="0.26114">
        <ele>1249.79</ele>
        <time>2018-10-20T16:10:29Z</time>
      </trkpt>
      <trkpt lat="42.9424" lon="0.26142">
        <ele>1248.95</ele>
        <time>2018-10-20T16:10:48Z</time>
      </trkpt>
      <trkpt lat="42.94246" lon="0.26167">
        <ele>1248.43</ele>
        <time>2018-10-20T16:11:07Z</time>
      </trkpt>
      <trkpt lat="42.94248" lon="0.26174">
        <ele>1248.53</ele>
        <time>2018-10-20T16:11:12Z</time>
      </trkpt>
      <trkpt lat="42.94249" lon="0.26177">
        <ele>1248.41</ele>
        <time>2018-10-20T16:11:19Z</time>
      </trkpt>
      <trkpt lat="42.94263" lon="0.26199">
        <ele>1247.52</ele>
        <time>2018-10-20T16:11:47Z</time>
      </trkpt>
      <trkpt lat="42.94271" lon="0.26215">
        <ele>1247.14</ele>
        <time>2018-10-20T16:12:01Z</time>
      </trkpt>
      <trkpt lat="42.94282" lon="0.26226">
        <ele>1245.89</ele>
        <time>2018-10-20T16:12:15Z</time>
      </trkpt>
      <trkpt lat="42.94298" lon="0.26234">
        <ele>1244.15</ele>
        <time>2018-10-20T16:12:32Z</time>
      </trkpt>
      <trkpt lat="42.94312" lon="0.2624">
        <ele>1242.64</ele>
        <time>2018-10-20T16:12:48Z</time>
      </trkpt>
      <trkpt lat="42.94327" lon="0.26244">
        <ele>1241.75</ele>
        <time>2018-10-20T16:13:03Z</time>
      </trkpt>
      <trkpt lat="42.94344" lon="0.26249">
        <ele>1241.63</ele>
        <time>2018-10-20T16:13:20Z</time>
      </trkpt>
      <trkpt lat="42.94349" lon="0.26248">
        <ele>1241.55</ele>
        <time>2018-10-20T16:13:24Z</time>
      </trkpt>
      <trkpt lat="42.94365" lon="0.26246">
        <ele>1240.58</ele>
        <time>2018-10-20T16:13:40Z</time>
      </trkpt>
      <trkpt lat="42.94375" lon="0.26244">
        <ele>1239.89</ele>
        <time>2018-10-20T16:13:53Z</time>
      </trkpt>
      <trkpt lat="42.94387" lon="0.26239">
        <ele>1239.33</ele>
        <time>2018-10-20T16:14:06Z</time>
      </trkpt>
      <trkpt lat="42.94399" lon="0.2624">
        <ele>1239.03</ele>
        <time>2018-10-20T16:14:17Z</time>
      </trkpt>
      <trkpt lat="42.94406" lon="0.26241">
        <ele>1238.79</ele>
        <time>2018-10-20T16:14:25Z</time>
      </trkpt>
      <trkpt lat="42.94417" lon="0.26253">
        <ele>1239.01</ele>
        <time>2018-10-20T16:14:42Z</time>
      </trkpt>
      <trkpt lat="42.94425" lon="0.26267">
        <ele>1239.51</ele>
        <time>2018-10-20T16:14:56Z</time>
      </trkpt>
      <trkpt lat="42.94437" lon="0.26276">
        <ele>1241.06</ele>
        <time>2018-10-20T16:15:11Z</time>
      </trkpt>
      <trkpt lat="42.94453" lon="0.26283">
        <ele>1241.73</ele>
        <time>2018-10-20T16:15:29Z</time>
      </trkpt>
      <trkpt lat="42.94457" lon="0.26285">
        <ele>1241.53</ele>
        <time>2018-10-20T16:15:36Z</time>
      </trkpt>
      <trkpt lat="42.94476" lon="0.26215">
        <ele>1233.32</ele>
        <time>2018-10-20T16:17:03Z</time>
      </trkpt>
      <trkpt lat="42.94475" lon="0.26208">
        <ele>1232.78</ele>
        <time>2018-10-20T16:17:09Z</time>
      </trkpt>
      <trkpt lat="42.94479" lon="0.26198">
        <ele>1231.89</ele>
        <time>2018-10-20T16:17:18Z</time>
      </trkpt>
      <trkpt lat="42.94491" lon="0.26185">
        <ele>1230.92</ele>
        <time>2018-10-20T16:17:33Z</time>
      </trkpt>
      <trkpt lat="42.94499" lon="0.26171">
        <ele>1229.66</ele>
        <time>2018-10-20T16:17:48Z</time>
      </trkpt>
      <trkpt lat="42.94509" lon="0.26155">
        <ele>1227.72</ele>
        <time>2018-10-20T16:18:03Z</time>
      </trkpt>
      <trkpt lat="42.94517" lon="0.2614">
        <ele>1226.36</ele>
        <time>2018-10-20T16:18:18Z</time>
      </trkpt>
      <trkpt lat="42.94518" lon="0.26139">
        <ele>1226.24</ele>
        <time>2018-10-20T16:18:19Z</time>
      </trkpt>
      <trkpt lat="42.9453" lon="0.26122">
        <ele>1224.96</ele>
        <time>2018-10-20T16:18:36Z</time>
      </trkpt>
      <trkpt lat="42.94534" lon="0.26117">
        <ele>1224.58</ele>
        <time>2018-10-20T16:18:41Z</time>
      </trkpt>
      <trkpt lat="42.94542" lon="0.26103">
        <ele>1223.44</ele>
        <time>2018-10-20T16:18:55Z</time>
      </trkpt>
      <trkpt lat="42.94547" lon="0.26086">
        <ele>1222.89</ele>
        <time>2018-10-20T16:19:10Z</time>
      </trkpt>
      <trkpt lat="42.94562" lon="0.26039">
        <ele>1222.56</ele>
        <time>2018-10-20T16:19:43Z</time>
      </trkpt>
      <trkpt lat="42.94568" lon="0.26025">
        <ele>1221.49</ele>
        <time>2018-10-20T16:19:57Z</time>
      </trkpt>
      <trkpt lat="42.94569" lon="0.25961">
        <ele>1214.41</ele>
        <time>2018-10-20T16:21:38Z</time>
      </trkpt>
      <trkpt lat="42.94568" lon="0.25959">
        <ele>1214.06</ele>
        <time>2018-10-20T16:21:40Z</time>
      </trkpt>
      <trkpt lat="42.94564" lon="0.25949">
        <ele>1212.61</ele>
        <time>2018-10-20T16:21:51Z</time>
      </trkpt>
      <trkpt lat="42.94564" lon="0.25922">
        <ele>1211.34</ele>
        <time>2018-10-20T16:22:10Z</time>
      </trkpt>
      <trkpt lat="42.94568" lon="0.25893">
        <ele>1210.26</ele>
        <time>2018-10-20T16:22:30Z</time>
      </trkpt>
      <trkpt lat="42.9457" lon="0.25878">
        <ele>1210.16</ele>
        <time>2018-10-20T16:22:36Z</time>
      </trkpt>
      <trkpt lat="42.94573" lon="0.2587">
        <ele>1210.06</ele>
        <time>2018-10-20T16:22:40Z</time>
      </trkpt>
      <trkpt lat="42.94582" lon="0.25856">
        <ele>1209.62</ele>
        <time>2018-10-20T16:22:51Z</time>
      </trkpt>
      <trkpt lat="42.94589" lon="0.25851">
        <ele>1209.4</ele>
        <time>2018-10-20T16:22:58Z</time>
      </trkpt>
      <trkpt lat="42.94602" lon="0.25837">
        <ele>1209.41</ele>
        <time>2018-10-20T16:23:12Z</time>
      </trkpt>
      <trkpt lat="42.94608" lon="0.25823">
        <ele>1209.08</ele>
        <time>2018-10-20T16:23:25Z</time>
      </trkpt>
      <trkpt lat="42.94607" lon="0.25821">
        <ele>1208.77</ele>
        <time>2018-10-20T16:23:28Z</time>
      </trkpt>
      <trkpt lat="42.94603" lon="0.2581">
        <ele>1206.77</ele>
        <time>2018-10-20T16:23:42Z</time>
      </trkpt>
      <trkpt lat="42.946" lon="0.25801">
        <ele>1205.58</ele>
        <time>2018-10-20T16:23:52Z</time>
      </trkpt>
      <trkpt lat="42.94597" lon="0.25796">
        <ele>1205.04</ele>
        <time>2018-10-20T16:23:56Z</time>
      </trkpt>
      <trkpt lat="42.94591" lon="0.2578">
        <ele>1203.14</ele>
        <time>2018-10-20T16:24:10Z</time>
      </trkpt>
      <trkpt lat="42.94588" lon="0.25773">
        <ele>1202.58</ele>
        <time>2018-10-20T16:24:15Z</time>
      </trkpt>
      <trkpt lat="42.94582" lon="0.25755">
        <ele>1201.17</ele>
        <time>2018-10-20T16:24:29Z</time>
      </trkpt>
      <trkpt lat="42.94574" lon="0.25733">
        <ele>1200.4</ele>
        <time>2018-10-20T16:24:45Z</time>
      </trkpt>
      <trkpt lat="42.94574" lon="0.25729">
        <ele>1200.27</ele>
        <time>2018-10-20T16:24:48Z</time>
      </trkpt>
      <trkpt lat="42.94572" lon="0.25723">
        <ele>1199.88</ele>
        <time>2018-10-20T16:24:52Z</time>
      </trkpt>
      <trkpt lat="42.94576" lon="0.25701">
        <ele>1198.81</ele>
        <time>2018-10-20T16:25:05Z</time>
      </trkpt>
      <trkpt lat="42.94579" lon="0.25677">
        <ele>1197.42</ele>
        <time>2018-10-20T16:25:19Z</time>
      </trkpt>
      <trkpt lat="42.9458" lon="0.25673">
        <ele>1197.13</ele>
        <time>2018-10-20T16:25:22Z</time>
      </trkpt>
      <trkpt lat="42.9458" lon="0.25665">
        <ele>1196.69</ele>
        <time>2018-10-20T16:25:27Z</time>
      </trkpt>
      <trkpt lat="42.94575" lon="0.25645">
        <ele>1195.01</ele>
        <time>2018-10-20T16:25:42Z</time>
      </trkpt>
      <trkpt lat="42.94574" lon="0.25639">
        <ele>1194.59</ele>
        <time>2018-10-20T16:25:47Z</time>
      </trkpt>
      <trkpt lat="42.94573" lon="0.25634">
        <ele>1194.23</ele>
        <time>2018-10-20T16:25:51Z</time>
      </trkpt>
      <trkpt lat="42.94568" lon="0.25625">
        <ele>1193.54</ele>
        <time>2018-10-20T16:25:59Z</time>
      </trkpt>
      <trkpt lat="42.94565" lon="0.25599">
        <ele>1192.38</ele>
        <time>2018-10-20T16:26:19Z</time>
      </trkpt>
      <trkpt lat="42.94564" lon="0.25597">
        <ele>1192.23</ele>
        <time>2018-10-20T16:26:24Z</time>
      </trkpt>
      <trkpt lat="42.94573" lon="0.25589">
        <ele>1192.41</ele>
        <time>2018-10-20T16:27:18Z</time>
      </trkpt>
      <trkpt lat="42.94593" lon="0.25578">
        <ele>1191.75</ele>
        <time>2018-10-20T16:27:36Z</time>
      </trkpt>
      <trkpt lat="42.94596" lon="0.25577">
        <ele>1191.77</ele>
        <time>2018-10-20T16:27:39Z</time>
      </trkpt>
      <trkpt lat="42.94616" lon="0.25578">
        <ele>1192.17</ele>
        <time>2018-10-20T16:27:55Z</time>
      </trkpt>
      <trkpt lat="42.94636" lon="0.25579">
        <ele>1192.38</ele>
        <time>2018-10-20T16:28:13Z</time>
      </trkpt>
      <trkpt lat="42.94637" lon="0.2558">
        <ele>1192.43</ele>
        <time>2018-10-20T16:28:16Z</time>
      </trkpt>
    </trkseg>
  </trk>
</gpx>